Time,TemperatureF,DewpointF,PressureIn,WindDirection,WindDirectionDegrees,WindSpeedMPH,WindSpeedGustMPH,Humidity,HourlyPrecipIn,Conditions,Clouds,dailyrainin,SoftwareType,DateUTC
2013-04-04 00:00:00,52.3,48.2,29.86,West,270,0.0,0.0,86,0.00,,,0.00,WUHU21623XXSP,2013-04-04 07:00:00,
2013-04-04 00:01:00,52.3,48.2,29.86,West,270,0.0,0.0,86,0.00,,,0.00,WUHU21623XXSP,2013-04-04 07:01:00,
2013-04-04 00:02:00,52.3,48.2,29.85,West,270,0.0,0.0,86,0.00,,,0.00,WUHU21623XXSP,2013-04-04 07:02:00,
2013-04-04 00:03:00,52.3,48.2,29.85,West,270,0.0,0.0,86,0.00,,,0.00,WUHU21623XXSP,2013-04-04 07:03:00,
2013-04-04 00:06:00,52.3,48.2,29.85,West,270,0.0,0.0,86,0.00,,,0.00,WUHU21623XXSP,2013-04-04 07:06:00,
2013-04-04 00:07:00,52.3,48.2,29.85,West,270,0.0,0.0,86,0.00,,,0.00,WUHU21623XXSP,2013-04-04 07:07:00,
2013-04-04 00:09:00,52.3,48.2,29.85,West,270,0.0,0.0,86,0.00,,,0.00,WUHU21623XXSP,2013-04-04 07:09:00,
2013-04-04 00:11:00,52.3,48.2,29.85,West,270,0.0,0.0,86,0.00,,,0.00,WUHU21623XXSP,2013-04-04 07:11:00,
2013-04-04 00:12:00,52.3,48.2,29.85,West,270,0.0,0.0,86,0.00,,,0.00,WUHU21623XXSP,2013-04-04 07:12:00,
2013-04-04 00:14:00,52.3,48.5,29.84,West,270,0.0,0.0,87,0.00,,,0.00,WUHU21623XXSP,2013-04-04 07:14:00,
2013-04-04 00:17:00,52.2,48.4,29.84,West,270,0.0,0.0,87,0.00,,,0.00,WUHU21623XXSP,2013-04-04 07:17:00,
2013-04-04 00:19:00,52.2,48.4,29.84,West,270,0.0,0.0,87,0.00,,,0.00,WUHU21623XXSP,2013-04-04 07:19:00,
2013-04-04 00:22:00,52.2,48.4,29.84,West,270,0.0,0.0,87,0.00,,,0.00,WUHU21623XXSP,2013-04-04 07:22:00,
2013-04-04 00:25:00,52.0,48.2,29.84,West,270,0.0,0.0,87,0.00,,,0.00,WUHU21623XXSP,2013-04-04 07:25:00,
2013-04-04 00:27:00,52.0,48.2,29.84,West,270,0.0,0.0,87,0.00,,,0.00,WUHU21623XXSP,2013-04-04 07:27:00,
2013-04-04 00:30:00,52.0,48.2,29.84,West,270,0.0,0.0,87,0.00,,,0.00,WUHU21623XXSP,2013-04-04 07:30:00,
2013-04-04 00:32:00,52.0,48.2,29.84,SW,225,0.0,1.1,87,0.00,,,0.00,WUHU21623XXSP,2013-04-04 07:32:00,
2013-04-04 00:33:00,52.0,48.2,29.85,SW,225,0.0,1.1,87,0.00,,,0.00,WUHU21623XXSP,2013-04-04 07:33:00,
2013-04-04 00:35:00,51.8,48.0,29.85,SW,225,0.0,1.1,87,0.00,,,0.00,WUHU21623XXSP,2013-04-04 07:35:00,
2013-04-04 00:37:00,51.8,48.0,29.85,West,270,0.0,1.1,87,0.00,,,0.00,WUHU21623XXSP,2013-04-04 07:37:00,
2013-04-04 00:38:00,51.8,48.0,29.85,West,270,0.4,1.1,87,0.00,,,0.00,WUHU21623XXSP,2013-04-04 07:38:00,
2013-04-04 00:40:00,51.8,48.0,29.85,West,270,0.0,1.1,87,0.00,,,0.00,WUHU21623XXSP,2013-04-04 07:40:00,
2013-04-04 00:42:00,51.8,48.0,29.85,West,270,0.0,1.8,87,0.00,,,0.00,WUHU21623XXSP,2013-04-04 07:42:00,
2013-04-04 00:43:00,51.6,47.8,29.85,WSW,247,4.5,4.5,87,0.00,,,0.00,WUHU21623XXSP,2013-04-04 07:43:00,
2013-04-04 00:46:00,51.6,47.8,29.85,WSW,247,0.0,4.5,87,0.00,,,0.00,WUHU21623XXSP,2013-04-04 07:46:00,
2013-04-04 00:47:00,51.6,47.8,29.85,WSW,247,0.0,4.5,87,0.00,,,0.00,WUHU21623XXSP,2013-04-04 07:47:00,
2013-04-04 00:48:00,51.6,47.8,29.85,SW,225,1.3,4.5,87,0.00,,,0.00,WUHU21623XXSP,2013-04-04 07:48:00,
2013-04-04 00:50:00,51.6,47.8,29.85,West,270,0.7,4.5,87,0.00,,,0.00,WUHU21623XXSP,2013-04-04 07:50:00,
2013-04-04 00:52:00,51.6,47.8,29.85,West,270,0.0,4.5,87,0.00,,,0.00,WUHU21623XXSP,2013-04-04 07:52:00,
2013-04-04 00:53:00,51.6,47.8,29.85,SW,225,0.0,3.4,87,0.00,,,0.00,WUHU21623XXSP,2013-04-04 07:53:00,
2013-04-04 00:55:00,51.4,47.6,29.85,West,270,0.0,3.4,87,0.00,,,0.00,WUHU21623XXSP,2013-04-04 07:55:00,
2013-04-04 00:57:00,51.4,47.6,29.85,WSW,247,0.0,2.2,87,0.00,,,0.00,WUHU21623XXSP,2013-04-04 07:57:00,
2013-04-04 00:58:00,51.4,47.6,29.85,WSW,247,0.0,2.2,87,0.00,,,0.00,WUHU21623XXSP,2013-04-04 07:58:00,
2013-04-04 01:00:00,51.4,47.6,29.85,WSW,247,0.0,2.2,87,0.00,,,0.00,WUHU21623XXSP,2013-04-04 08:00:00,
2013-04-04 01:02:00,51.4,47.6,29.85,WSW,247,0.0,2.2,87,0.00,,,0.00,WUHU21623XXSP,2013-04-04 08:02:00,
2013-04-04 01:03:00,51.4,47.6,29.85,WSW,247,0.0,2.2,87,0.00,,,0.00,WUHU21623XXSP,2013-04-04 08:03:00,
2013-04-04 01:05:00,51.4,47.6,29.85,WSW,247,0.0,2.2,87,0.00,,,0.00,WUHU21623XXSP,2013-04-04 08:05:00,
2013-04-04 01:07:00,51.4,47.6,29.85,SSW,202,0.0,1.3,87,0.00,,,0.00,WUHU21623XXSP,2013-04-04 08:07:00,
2013-04-04 01:08:00,51.4,47.6,29.85,SSW,202,0.0,1.3,87,0.00,,,0.00,WUHU21623XXSP,2013-04-04 08:08:00,
2013-04-04 01:10:00,51.4,47.6,29.85,South,180,0.0,0.0,87,0.00,,,0.00,WUHU21623XXSP,2013-04-04 08:10:00,
2013-04-04 01:12:00,51.4,47.6,29.85,South,180,0.0,0.0,87,0.00,,,0.00,WUHU21623XXSP,2013-04-04 08:12:00,
2013-04-04 01:13:00,51.4,47.6,29.85,South,180,0.0,0.0,87,0.00,,,0.00,WUHU21623XXSP,2013-04-04 08:13:00,
2013-04-04 01:16:00,51.4,47.6,29.85,South,180,0.0,0.0,87,0.00,,,0.00,WUHU21623XXSP,2013-04-04 08:16:00,
2013-04-04 01:17:00,51.4,47.6,29.85,South,180,0.0,0.0,87,0.00,,,0.00,WUHU21623XXSP,2013-04-04 08:17:00,
2013-04-04 01:18:00,51.4,47.6,29.85,South,180,0.0,0.0,87,0.00,,,0.00,WUHU21623XXSP,2013-04-04 08:18:00,
2013-04-04 01:22:00,51.3,47.5,29.85,South,180,0.0,0.0,87,0.00,,,0.00,WUHU21623XXSP,2013-04-04 08:22:00,
2013-04-04 01:23:00,51.3,47.5,29.85,South,180,0.0,0.0,87,0.00,,,0.00,WUHU21623XXSP,2013-04-04 08:23:00,
2013-04-04 01:27:00,51.3,47.5,29.84,South,180,0.0,0.0,87,0.00,,,0.00,WUHU21623XXSP,2013-04-04 08:27:00,
2013-04-04 01:28:00,51.3,47.5,29.84,South,180,0.0,0.0,87,0.00,,,0.00,WUHU21623XXSP,2013-04-04 08:28:00,
2013-04-04 01:32:00,51.3,47.5,29.83,South,180,0.0,0.0,87,0.00,,,0.00,WUHU21623XXSP,2013-04-04 08:32:00,
2013-04-04 01:33:00,51.3,47.5,29.83,South,180,0.0,0.0,87,0.00,,,0.00,WUHU21623XXSP,2013-04-04 08:33:00,
2013-04-04 01:35:00,51.3,47.5,29.83,South,180,0.0,0.0,87,0.00,,,0.00,WUHU21623XXSP,2013-04-04 08:35:00,
2013-04-04 01:37:00,51.3,47.5,29.82,NE,45,0.0,0.0,87,0.00,,,0.00,WUHU21623XXSP,2013-04-04 08:37:00,
2013-04-04 01:38:00,51.3,47.5,29.82,NE,45,0.0,0.0,87,0.00,,,0.00,WUHU21623XXSP,2013-04-04 08:38:00,
2013-04-04 01:39:00,51.3,47.5,29.82,NE,45,0.0,0.0,87,0.00,,,0.00,WUHU21623XXSP,2013-04-04 08:39:00,
2013-04-04 01:40:00,51.3,47.5,29.82,NE,45,0.0,0.0,87,0.00,,,0.00,WUHU21623XXSP,2013-04-04 08:40:00,
2013-04-04 01:42:00,51.3,47.5,29.82,NE,45,0.0,0.0,87,0.00,,,0.00,WUHU21623XXSP,2013-04-04 08:42:00,
2013-04-04 01:43:00,51.1,47.3,29.82,NE,45,0.0,0.0,87,0.00,,,0.00,WUHU21623XXSP,2013-04-04 08:43:00,
2013-04-04 01:45:00,51.3,47.5,29.82,NE,45,0.0,0.0,87,0.00,,,0.00,WUHU21623XXSP,2013-04-04 08:45:00,
2013-04-04 01:47:00,51.1,47.3,29.82,NE,45,0.0,0.0,87,0.00,,,0.00,WUHU21623XXSP,2013-04-04 08:47:00,
2013-04-04 01:48:00,51.1,47.3,29.82,NE,45,0.0,0.0,87,0.00,,,0.00,WUHU21623XXSP,2013-04-04 08:48:00,
2013-04-04 01:50:00,51.3,47.5,29.83,NE,45,0.0,0.0,87,0.00,,,0.00,WUHU21623XXSP,2013-04-04 08:50:00,
2013-04-04 01:52:00,51.1,47.6,29.83,SSE,157,0.0,0.0,88,0.00,,,0.00,WUHU21623XXSP,2013-04-04 08:52:00,
2013-04-04 01:54:00,51.3,47.8,29.83,SSE,157,0.0,0.0,88,0.00,,,0.00,WUHU21623XXSP,2013-04-04 08:54:00,
2013-04-04 01:55:00,51.3,47.8,29.83,SSE,157,0.0,0.0,88,0.00,,,0.00,WUHU21623XXSP,2013-04-04 08:55:00,
2013-04-04 01:58:00,51.3,47.8,29.83,SE,135,0.0,0.0,88,0.00,,,0.00,WUHU21623XXSP,2013-04-04 08:58:00,
2013-04-04 01:59:00,51.3,47.8,29.82,SE,135,0.0,0.0,88,0.00,,,0.00,WUHU21623XXSP,2013-04-04 08:59:00,
2013-04-04 02:00:00,51.3,47.8,29.83,SE,135,0.0,0.0,88,0.00,,,0.00,WUHU21623XXSP,2013-04-04 09:00:00,
2013-04-04 02:01:00,51.3,47.8,29.83,SE,135,0.0,0.0,88,0.00,,,0.00,WUHU21623XXSP,2013-04-04 09:01:00,
2013-04-04 02:03:00,51.3,47.8,29.82,SE,135,0.0,0.0,88,0.00,,,0.00,WUHU21623XXSP,2013-04-04 09:03:00,
2013-04-04 02:04:00,51.3,47.8,29.82,SE,135,0.0,0.0,88,0.00,,,0.00,WUHU21623XXSP,2013-04-04 09:04:00,
2013-04-04 02:05:00,51.3,47.8,29.82,SSE,157,0.0,0.0,88,0.00,,,0.00,WUHU21623XXSP,2013-04-04 09:05:00,
2013-04-04 02:06:00,51.3,47.8,29.82,SSE,157,0.0,0.0,88,0.00,,,0.00,WUHU21623XXSP,2013-04-04 09:06:00,
2013-04-04 02:08:00,51.3,47.8,29.81,ENE,67,0.0,0.0,88,0.00,,,0.00,WUHU21623XXSP,2013-04-04 09:08:00,
2013-04-04 02:09:00,51.3,47.8,29.81,ENE,67,0.0,0.0,88,0.00,,,0.00,WUHU21623XXSP,2013-04-04 09:09:00,
2013-04-04 02:10:00,51.3,47.8,29.81,ENE,67,0.0,0.0,88,0.00,,,0.00,WUHU21623XXSP,2013-04-04 09:10:00,
2013-04-04 02:12:00,51.3,47.8,29.81,ENE,67,0.0,0.0,88,0.00,,,0.00,WUHU21623XXSP,2013-04-04 09:12:00,
2013-04-04 02:14:00,51.3,47.8,29.81,East,90,0.0,0.0,88,0.00,,,0.00,WUHU21623XXSP,2013-04-04 09:14:00,
2013-04-04 02:16:00,51.3,47.8,29.81,East,90,0.0,0.0,88,0.00,,,0.00,WUHU21623XXSP,2013-04-04 09:16:00,
2013-04-04 02:17:00,51.3,47.8,29.81,East,90,0.0,0.0,88,0.00,,,0.00,WUHU21623XXSP,2013-04-04 09:17:00,
2013-04-04 02:19:00,51.3,47.8,29.81,East,90,0.0,0.0,88,0.00,,,0.00,WUHU21623XXSP,2013-04-04 09:19:00,
2013-04-04 02:22:00,51.3,47.8,29.81,East,90,0.0,0.0,88,0.00,,,0.00,WUHU21623XXSP,2013-04-04 09:22:00,
2013-04-04 02:24:00,51.3,47.8,29.81,East,90,0.0,0.0,88,0.00,,,0.00,WUHU21623XXSP,2013-04-04 09:24:00,
2013-04-04 02:27:00,51.3,47.8,29.81,East,90,0.0,0.0,88,0.00,,,0.00,WUHU21623XXSP,2013-04-04 09:27:00,
2013-04-04 02:29:00,51.3,47.8,29.81,East,90,0.0,0.0,88,0.00,,,0.00,WUHU21623XXSP,2013-04-04 09:29:00,
2013-04-04 02:32:00,51.3,47.8,29.81,East,90,0.0,0.0,88,0.00,,,0.00,WUHU21623XXSP,2013-04-04 09:32:00,
2013-04-04 02:33:00,51.3,47.8,29.81,East,90,0.0,0.0,88,0.00,,,0.00,WUHU21623XXSP,2013-04-04 09:33:00,
2013-04-04 02:34:00,51.3,47.8,29.80,East,90,0.0,0.0,88,0.00,,,0.00,WUHU21623XXSP,2013-04-04 09:34:00,
2013-04-04 02:35:00,51.3,47.8,29.80,East,90,0.0,0.0,88,0.00,,,0.00,WUHU21623XXSP,2013-04-04 09:35:00,
2013-04-04 02:37:00,51.3,47.8,29.80,East,90,0.0,0.0,88,0.00,,,0.00,WUHU21623XXSP,2013-04-04 09:37:00,
2013-04-04 02:38:00,51.3,47.8,29.80,East,90,0.0,0.0,88,0.00,,,0.00,WUHU21623XXSP,2013-04-04 09:38:00,
2013-04-04 02:40:00,51.3,47.8,29.80,East,90,0.0,0.0,88,0.00,,,0.00,WUHU21623XXSP,2013-04-04 09:40:00,
2013-04-04 02:42:00,51.3,47.8,29.80,East,90,0.0,0.0,88,0.00,,,0.00,WUHU21623XXSP,2013-04-04 09:42:00,
2013-04-04 02:43:00,51.4,47.9,29.80,East,90,0.0,0.0,88,0.00,,,0.00,WUHU21623XXSP,2013-04-04 09:43:00,
2013-04-04 02:45:00,51.4,47.9,29.80,East,90,0.0,0.0,88,0.00,,,0.00,WUHU21623XXSP,2013-04-04 09:45:00,
2013-04-04 02:46:00,51.4,47.9,29.80,East,90,0.0,0.0,88,0.00,,,0.00,WUHU21623XXSP,2013-04-04 09:46:00,
2013-04-04 02:47:00,51.4,47.9,29.80,East,90,0.0,0.0,88,0.00,,,0.00,WUHU21623XXSP,2013-04-04 09:47:00,
2013-04-04 02:48:00,51.4,47.9,29.80,East,90,0.0,0.0,88,0.00,,,0.00,WUHU21623XXSP,2013-04-04 09:48:00,
2013-04-04 02:51:00,51.4,47.9,29.80,East,90,0.0,0.0,88,0.00,,,0.00,WUHU21623XXSP,2013-04-04 09:51:00,
2013-04-04 02:53:00,51.4,47.9,29.80,East,90,0.0,0.0,88,0.00,,,0.00,WUHU21623XXSP,2013-04-04 09:53:00,
2013-04-04 02:56:00,51.4,47.9,29.80,East,90,0.0,0.0,88,0.00,,,0.00,WUHU21623XXSP,2013-04-04 09:56:00,
2013-04-04 02:58:00,51.4,47.9,29.80,East,90,0.0,0.0,88,0.02,,,0.00,WUHU21623XXSP,2013-04-04 09:58:00,
2013-04-04 03:00:00,51.4,47.9,29.80,East,90,0.0,0.0,88,0.02,,,0.02,WUHU21623XXSP,2013-04-04 10:00:00,
2013-04-04 03:02:00,51.4,47.9,29.80,East,90,0.0,0.0,88,0.02,,,0.02,WUHU21623XXSP,2013-04-04 10:02:00,
2013-04-04 03:03:00,51.4,47.9,29.79,East,90,0.0,0.0,88,0.02,,,0.02,WUHU21623XXSP,2013-04-04 10:03:00,
2013-04-04 03:05:00,51.4,47.9,29.80,East,90,0.0,0.0,88,0.02,,,0.02,WUHU21623XXSP,2013-04-04 10:05:00,
2013-04-04 03:07:00,51.4,47.9,29.80,East,90,0.0,0.0,88,0.02,,,0.02,WUHU21623XXSP,2013-04-04 10:07:00,
2013-04-04 03:08:00,51.4,47.9,29.80,East,90,0.0,0.0,88,0.02,,,0.02,WUHU21623XXSP,2013-04-04 10:08:00,
2013-04-04 03:10:00,51.4,47.9,29.80,East,90,0.0,0.0,88,0.02,,,0.02,WUHU21623XXSP,2013-04-04 10:10:00,
2013-04-04 03:12:00,51.4,47.9,29.79,East,90,0.0,0.0,88,0.02,,,0.02,WUHU21623XXSP,2013-04-04 10:12:00,
2013-04-04 03:13:00,51.4,47.9,29.79,East,90,0.0,0.0,88,0.02,,,0.02,WUHU21623XXSP,2013-04-04 10:13:00,
2013-04-04 03:16:00,51.4,47.9,29.79,East,90,0.0,0.0,88,0.02,,,0.02,WUHU21623XXSP,2013-04-04 10:16:00,
2013-04-04 03:18:00,51.4,47.9,29.79,East,90,0.0,0.0,88,0.02,,,0.02,WUHU21623XXSP,2013-04-04 10:18:00,
2013-04-04 03:19:00,51.4,47.9,29.79,East,90,0.0,0.0,88,0.02,,,0.02,WUHU21623XXSP,2013-04-04 10:19:00,
2013-04-04 03:22:00,51.4,47.9,29.79,East,90,0.0,0.0,88,0.02,,,0.02,WUHU21623XXSP,2013-04-04 10:22:00,
2013-04-04 03:23:00,51.4,47.9,29.79,East,90,0.0,0.0,88,0.02,,,0.02,WUHU21623XXSP,2013-04-04 10:23:00,
2013-04-04 03:25:00,51.4,47.9,29.78,East,90,0.0,0.0,88,0.02,,,0.02,WUHU21623XXSP,2013-04-04 10:25:00,
2013-04-04 03:27:00,51.4,47.9,29.79,East,90,0.0,0.0,88,0.02,,,0.02,WUHU21623XXSP,2013-04-04 10:27:00,
2013-04-04 03:29:00,51.4,47.9,29.78,East,90,0.0,0.0,88,0.02,,,0.02,WUHU21623XXSP,2013-04-04 10:29:00,
2013-04-04 03:30:00,51.4,47.9,29.78,East,90,0.0,0.0,88,0.02,,,0.02,WUHU21623XXSP,2013-04-04 10:30:00,
2013-04-04 03:32:00,51.4,47.9,29.78,East,90,0.0,0.0,88,0.02,,,0.02,WUHU21623XXSP,2013-04-04 10:32:00,
2013-04-04 03:34:00,51.4,47.9,29.78,East,90,0.0,0.0,88,0.02,,,0.02,WUHU21623XXSP,2013-04-04 10:34:00,
2013-04-04 03:35:00,51.4,47.9,29.78,East,90,0.0,0.0,88,0.02,,,0.02,WUHU21623XXSP,2013-04-04 10:35:00,
2013-04-04 03:37:00,51.4,47.9,29.78,East,90,0.0,0.0,88,0.02,,,0.02,WUHU21623XXSP,2013-04-04 10:37:00,
2013-04-04 03:39:00,51.4,47.9,29.78,East,90,0.0,0.0,88,0.02,,,0.02,WUHU21623XXSP,2013-04-04 10:39:00,
2013-04-04 03:41:00,51.4,47.9,29.77,East,90,0.0,0.0,88,0.02,,,0.02,WUHU21623XXSP,2013-04-04 10:41:00,
2013-04-04 03:43:00,51.4,47.9,29.77,East,90,0.0,0.0,88,0.02,,,0.02,WUHU21623XXSP,2013-04-04 10:43:00,
2013-04-04 03:44:00,51.4,47.9,29.77,East,90,0.0,0.0,88,0.02,,,0.02,WUHU21623XXSP,2013-04-04 10:44:00,
2013-04-04 03:46:00,51.4,47.9,29.77,East,90,0.0,0.0,88,0.02,,,0.02,WUHU21623XXSP,2013-04-04 10:46:00,
2013-04-04 03:48:00,51.4,47.9,29.77,East,90,0.0,0.0,88,0.02,,,0.02,WUHU21623XXSP,2013-04-04 10:48:00,
2013-04-04 03:49:00,51.4,47.9,29.77,East,90,0.0,0.0,88,0.02,,,0.02,WUHU21623XXSP,2013-04-04 10:49:00,
2013-04-04 03:51:00,51.4,47.9,29.77,East,90,0.0,0.0,88,0.02,,,0.02,WUHU21623XXSP,2013-04-04 10:51:00,
2013-04-04 03:53:00,51.4,47.9,29.77,East,90,0.0,0.0,88,0.02,,,0.02,WUHU21623XXSP,2013-04-04 10:53:00,
2013-04-04 03:54:00,51.4,47.9,29.77,East,90,0.0,0.0,88,0.02,,,0.02,WUHU21623XXSP,2013-04-04 10:54:00,
2013-04-04 03:56:00,51.4,47.9,29.77,East,90,0.0,0.0,88,0.00,,,0.02,WUHU21623XXSP,2013-04-04 10:56:00,
2013-04-04 03:58:00,51.4,47.9,29.77,East,90,0.0,0.0,88,0.02,,,0.04,WUHU21623XXSP,2013-04-04 10:58:00,
2013-04-04 04:00:00,51.4,47.9,29.77,East,90,0.0,0.0,88,0.02,,,0.04,WUHU21623XXSP,2013-04-04 11:00:00,
2013-04-04 04:01:00,51.4,47.9,29.77,East,90,0.0,0.0,88,0.02,,,0.04,WUHU21623XXSP,2013-04-04 11:01:00,
2013-04-04 04:03:00,51.4,47.9,29.77,East,90,0.0,0.0,88,0.02,,,0.04,WUHU21623XXSP,2013-04-04 11:03:00,
2013-04-04 04:05:00,51.4,47.9,29.77,East,90,0.0,0.0,88,0.02,,,0.04,WUHU21623XXSP,2013-04-04 11:05:00,
2013-04-04 04:07:00,51.4,47.9,29.77,East,90,0.0,0.0,88,0.02,,,0.04,WUHU21623XXSP,2013-04-04 11:07:00,
2013-04-04 04:08:00,51.4,47.9,29.76,East,90,0.0,0.0,88,0.02,,,0.04,WUHU21623XXSP,2013-04-04 11:08:00,
2013-04-04 04:10:00,51.4,47.9,29.76,East,90,0.0,0.0,88,0.02,,,0.04,WUHU21623XXSP,2013-04-04 11:10:00,
2013-04-04 04:12:00,51.4,47.9,29.76,East,90,0.0,0.0,88,0.02,,,0.04,WUHU21623XXSP,2013-04-04 11:12:00,
2013-04-04 04:13:00,51.4,47.9,29.76,East,90,0.0,0.0,88,0.02,,,0.04,WUHU21623XXSP,2013-04-04 11:13:00,
2013-04-04 04:15:00,51.4,47.9,29.76,East,90,0.0,0.0,88,0.02,,,0.04,WUHU21623XXSP,2013-04-04 11:15:00,
2013-04-04 04:17:00,51.4,47.9,29.76,East,90,0.0,0.0,88,0.02,,,0.04,WUHU21623XXSP,2013-04-04 11:17:00,
2013-04-04 04:18:00,51.4,47.9,29.76,East,90,0.0,0.0,88,0.02,,,0.04,WUHU21623XXSP,2013-04-04 11:18:00,
2013-04-04 04:20:00,51.4,47.9,29.75,East,90,0.0,0.0,88,0.02,,,0.04,WUHU21623XXSP,2013-04-04 11:20:00,
2013-04-04 04:22:00,51.4,47.9,29.75,East,90,0.0,0.0,88,0.02,,,0.04,WUHU21623XXSP,2013-04-04 11:22:00,
2013-04-04 04:23:00,51.4,47.9,29.75,East,90,0.0,0.0,88,0.02,,,0.04,WUHU21623XXSP,2013-04-04 11:23:00,
2013-04-04 04:25:00,51.4,47.9,29.76,East,90,0.0,0.0,88,0.02,,,0.04,WUHU21623XXSP,2013-04-04 11:25:00,
2013-04-04 04:26:00,51.4,47.9,29.76,East,90,0.0,0.0,88,0.02,,,0.04,WUHU21623XXSP,2013-04-04 11:26:00,
2013-04-04 04:28:00,51.4,47.9,29.75,East,90,0.0,0.0,88,0.02,,,0.04,WUHU21623XXSP,2013-04-04 11:28:00,
2013-04-04 04:29:00,51.4,47.9,29.75,East,90,0.0,0.0,88,0.02,,,0.04,WUHU21623XXSP,2013-04-04 11:29:00,
2013-04-04 04:31:00,51.4,47.9,29.75,East,90,0.0,0.0,88,0.02,,,0.04,WUHU21623XXSP,2013-04-04 11:31:00,
2013-04-04 04:33:00,51.4,47.9,29.75,East,90,0.0,0.0,88,0.02,,,0.04,WUHU21623XXSP,2013-04-04 11:33:00,
2013-04-04 04:35:00,51.6,48.1,29.75,East,90,0.0,0.0,88,0.02,,,0.04,WUHU21623XXSP,2013-04-04 11:35:00,
2013-04-04 04:36:00,51.6,48.1,29.75,East,90,0.0,0.0,88,0.04,,,0.06,WUHU21623XXSP,2013-04-04 11:36:00,
2013-04-04 04:37:00,51.6,48.1,29.75,East,90,0.0,0.0,88,0.04,,,0.06,WUHU21623XXSP,2013-04-04 11:37:00,
2013-04-04 04:38:00,51.4,47.9,29.75,East,90,0.0,0.0,88,0.04,,,0.06,WUHU21623XXSP,2013-04-04 11:38:00,
2013-04-04 04:40:00,51.6,48.1,29.74,East,90,0.0,0.0,88,0.04,,,0.06,WUHU21623XXSP,2013-04-04 11:40:00,
2013-04-04 04:41:00,51.4,47.9,29.74,East,90,0.0,0.0,88,0.04,,,0.06,WUHU21623XXSP,2013-04-04 11:41:00,
2013-04-04 04:42:00,51.6,48.1,29.74,East,90,0.0,0.0,88,0.04,,,0.06,WUHU21623XXSP,2013-04-04 11:42:00,
2013-04-04 04:43:00,51.6,48.1,29.74,East,90,0.0,0.0,88,0.04,,,0.06,WUHU21623XXSP,2013-04-04 11:43:00,
2013-04-04 04:45:00,51.6,48.1,29.74,East,90,0.0,0.0,88,0.04,,,0.06,WUHU21623XXSP,2013-04-04 11:45:00,
2013-04-04 04:47:00,51.6,48.1,29.74,East,90,0.0,0.0,88,0.04,,,0.06,WUHU21623XXSP,2013-04-04 11:47:00,
2013-04-04 04:49:00,51.6,48.1,29.74,East,90,0.0,0.0,88,0.04,,,0.06,WUHU21623XXSP,2013-04-04 11:49:00,
2013-04-04 04:50:00,51.6,48.1,29.74,East,90,0.0,0.0,88,0.04,,,0.06,WUHU21623XXSP,2013-04-04 11:50:00,
2013-04-04 04:52:00,51.6,48.1,29.74,East,90,0.0,0.0,88,0.04,,,0.06,WUHU21623XXSP,2013-04-04 11:52:00,
2013-04-04 04:54:00,51.6,48.1,29.74,East,90,0.0,0.0,88,0.04,,,0.06,WUHU21623XXSP,2013-04-04 11:54:00,
2013-04-04 04:55:00,51.6,48.4,29.74,East,90,0.0,0.0,89,0.04,,,0.06,WUHU21623XXSP,2013-04-04 11:55:00,
2013-04-04 04:57:00,51.6,48.4,29.74,East,90,0.0,0.0,89,0.02,,,0.06,WUHU21623XXSP,2013-04-04 11:57:00,
2013-04-04 04:59:00,51.6,48.4,29.74,East,90,0.0,0.0,89,0.02,,,0.06,WUHU21623XXSP,2013-04-04 11:59:00,
2013-04-04 05:00:00,51.6,48.4,29.74,East,90,0.0,0.0,89,0.02,,,0.06,WUHU21623XXSP,2013-04-04 12:00:00,
2013-04-04 05:02:00,51.6,48.4,29.74,East,90,0.0,0.0,89,0.04,,,0.08,WUHU21623XXSP,2013-04-04 12:02:00,
2013-04-04 05:03:00,51.6,48.4,29.74,East,90,0.0,0.0,89,0.04,,,0.08,WUHU21623XXSP,2013-04-04 12:03:00,
2013-04-04 05:04:00,51.6,48.4,29.74,East,90,0.0,0.0,89,0.04,,,0.08,WUHU21623XXSP,2013-04-04 12:04:00,
2013-04-04 05:05:00,51.6,48.4,29.74,East,90,0.0,0.0,89,0.04,,,0.08,WUHU21623XXSP,2013-04-04 12:05:00,
2013-04-04 05:07:00,51.6,48.4,29.74,East,90,0.0,0.0,89,0.04,,,0.08,WUHU21623XXSP,2013-04-04 12:07:00,
2013-04-04 05:08:00,51.6,48.4,29.74,East,90,0.0,0.0,89,0.04,,,0.08,WUHU21623XXSP,2013-04-04 12:08:00,
2013-04-04 05:09:00,51.6,48.4,29.73,East,90,0.0,0.0,89,0.04,,,0.08,WUHU21623XXSP,2013-04-04 12:09:00,
2013-04-04 05:11:00,51.6,48.4,29.73,East,90,0.0,0.0,89,0.04,,,0.08,WUHU21623XXSP,2013-04-04 12:11:00,
2013-04-04 05:12:00,51.6,48.4,29.73,East,90,0.0,0.0,89,0.04,,,0.08,WUHU21623XXSP,2013-04-04 12:12:00,
2013-04-04 05:13:00,51.6,48.4,29.73,East,90,0.0,0.0,89,0.04,,,0.08,WUHU21623XXSP,2013-04-04 12:13:00,
2013-04-04 05:14:00,51.6,48.4,29.73,East,90,0.0,0.0,89,0.04,,,0.08,WUHU21623XXSP,2013-04-04 12:14:00,
2013-04-04 05:17:00,51.6,48.4,29.73,East,90,0.0,0.0,89,0.06,,,0.10,WUHU21623XXSP,2013-04-04 12:17:00,
2013-04-04 05:18:00,51.6,48.4,29.73,East,90,0.0,0.0,89,0.06,,,0.10,WUHU21623XXSP,2013-04-04 12:18:00,
2013-04-04 05:19:00,51.6,48.4,29.73,ESE,112,0.0,0.0,89,0.06,,,0.10,WUHU21623XXSP,2013-04-04 12:19:00,
2013-04-04 05:22:00,51.6,48.4,29.73,ESE,112,0.0,0.0,89,0.06,,,0.10,WUHU21623XXSP,2013-04-04 12:22:00,
2013-04-04 05:23:00,51.6,48.4,29.73,East,90,0.0,0.0,89,0.06,,,0.10,WUHU21623XXSP,2013-04-04 12:23:00,
2013-04-04 05:25:00,51.6,48.4,29.73,East,90,0.0,0.0,89,0.06,,,0.10,WUHU21623XXSP,2013-04-04 12:25:00,
2013-04-04 05:27:00,51.6,48.4,29.72,East,90,0.0,0.0,89,0.06,,,0.10,WUHU21623XXSP,2013-04-04 12:27:00,
2013-04-04 05:28:00,51.6,48.4,29.72,East,90,0.0,0.0,89,0.06,,,0.10,WUHU21623XXSP,2013-04-04 12:28:00,
2013-04-04 05:30:00,51.6,48.4,29.72,East,90,0.0,0.0,89,0.06,,,0.10,WUHU21623XXSP,2013-04-04 12:30:00,
2013-04-04 05:33:00,51.6,48.4,29.72,East,90,0.0,0.0,89,0.04,,,0.10,WUHU21623XXSP,2013-04-04 12:33:00,
2013-04-04 05:35:00,51.6,48.4,29.72,East,90,0.0,0.0,89,0.04,,,0.10,WUHU21623XXSP,2013-04-04 12:35:00,
2013-04-04 05:38:00,51.6,48.4,29.72,East,90,0.0,0.0,89,0.04,,,0.10,WUHU21623XXSP,2013-04-04 12:38:00,
2013-04-04 05:39:00,51.6,48.4,29.72,East,90,0.0,0.0,89,0.04,,,0.10,WUHU21623XXSP,2013-04-04 12:39:00,
2013-04-04 05:40:00,51.6,48.4,29.72,East,90,0.0,0.0,89,0.04,,,0.10,WUHU21623XXSP,2013-04-04 12:40:00,
2013-04-04 05:43:00,51.6,48.4,29.72,East,90,0.0,0.0,89,0.04,,,0.10,WUHU21623XXSP,2013-04-04 12:43:00,
2013-04-04 05:45:00,51.6,48.4,29.72,East,90,0.0,0.0,89,0.04,,,0.10,WUHU21623XXSP,2013-04-04 12:45:00,
2013-04-04 05:48:00,51.6,48.4,29.72,East,90,0.0,0.0,89,0.04,,,0.10,WUHU21623XXSP,2013-04-04 12:48:00,
2013-04-04 05:49:00,51.6,48.4,29.72,East,90,0.0,0.0,89,0.04,,,0.10,WUHU21623XXSP,2013-04-04 12:49:00,
2013-04-04 05:50:00,51.6,48.4,29.72,East,90,0.0,0.0,89,0.06,,,0.12,WUHU21623XXSP,2013-04-04 12:50:00,
2013-04-04 05:51:00,51.6,48.4,29.72,East,90,0.0,0.0,89,0.06,,,0.12,WUHU21623XXSP,2013-04-04 12:51:00,
2013-04-04 05:53:00,51.6,48.4,29.72,East,90,0.0,0.0,89,0.06,,,0.12,WUHU21623XXSP,2013-04-04 12:53:00,
2013-04-04 05:54:00,51.6,48.4,29.72,East,90,0.0,0.0,89,0.06,,,0.12,WUHU21623XXSP,2013-04-04 12:54:00,
2013-04-04 05:55:00,51.6,48.4,29.72,East,90,0.0,0.0,89,0.06,,,0.12,WUHU21623XXSP,2013-04-04 12:55:00,
2013-04-04 05:56:00,51.6,48.4,29.72,East,90,0.0,0.0,89,0.06,,,0.12,WUHU21623XXSP,2013-04-04 12:56:00,
2013-04-04 05:58:00,51.6,48.4,29.72,East,90,0.0,0.0,89,0.06,,,0.12,WUHU21623XXSP,2013-04-04 12:58:00,
2013-04-04 06:00:00,51.6,48.4,29.72,East,90,0.0,0.0,89,0.04,,,0.12,WUHU21623XXSP,2013-04-04 13:00:00,
2013-04-04 06:02:00,51.6,48.4,29.72,East,90,0.0,0.0,89,0.04,,,0.12,WUHU21623XXSP,2013-04-04 13:02:00,
2013-04-04 06:03:00,51.6,48.4,29.72,East,90,0.0,0.0,89,0.04,,,0.12,WUHU21623XXSP,2013-04-04 13:03:00,
2013-04-04 06:05:00,51.6,48.4,29.71,East,90,0.0,0.0,89,0.04,,,0.12,WUHU21623XXSP,2013-04-04 13:05:00,
2013-04-04 06:07:00,51.6,48.4,29.71,East,90,0.0,0.0,89,0.04,,,0.12,WUHU21623XXSP,2013-04-04 13:07:00,
2013-04-04 06:08:00,51.6,48.4,29.71,East,90,0.0,0.0,89,0.04,,,0.12,WUHU21623XXSP,2013-04-04 13:08:00,
2013-04-04 06:10:00,51.6,48.4,29.71,East,90,0.0,0.0,89,0.04,,,0.12,WUHU21623XXSP,2013-04-04 13:10:00,
2013-04-04 06:12:00,51.6,48.4,29.72,East,90,0.0,0.0,89,0.04,,,0.12,WUHU21623XXSP,2013-04-04 13:12:00,
2013-04-04 06:13:00,51.6,48.4,29.71,East,90,0.0,0.0,89,0.04,,,0.12,WUHU21623XXSP,2013-04-04 13:13:00,
2013-04-04 06:15:00,51.6,48.4,29.71,East,90,0.0,0.0,89,0.04,,,0.12,WUHU21623XXSP,2013-04-04 13:15:00,
2013-04-04 06:17:00,51.6,48.4,29.71,East,90,0.0,0.0,89,0.02,,,0.12,WUHU21623XXSP,2013-04-04 13:17:00,
2013-04-04 06:19:00,51.6,48.4,29.70,East,90,0.0,0.0,89,0.04,,,0.14,WUHU21623XXSP,2013-04-04 13:19:00,
2013-04-04 06:20:00,51.6,48.4,29.71,East,90,0.0,0.0,89,0.04,,,0.14,WUHU21623XXSP,2013-04-04 13:20:00,
2013-04-04 06:21:00,51.6,48.4,29.71,East,90,0.0,0.0,89,0.04,,,0.14,WUHU21623XXSP,2013-04-04 13:21:00,
2013-04-04 06:22:00,51.6,48.4,29.71,East,90,0.0,0.0,89,0.04,,,0.14,WUHU21623XXSP,2013-04-04 13:22:00,
2013-04-04 06:24:00,51.6,48.4,29.71,East,90,0.0,0.0,89,0.04,,,0.14,WUHU21623XXSP,2013-04-04 13:24:00,
2013-04-04 06:25:00,51.6,48.4,29.71,East,90,0.0,0.0,89,0.04,,,0.14,WUHU21623XXSP,2013-04-04 13:25:00,
2013-04-04 06:26:00,51.6,48.4,29.71,East,90,0.0,0.0,89,0.04,,,0.14,WUHU21623XXSP,2013-04-04 13:26:00,
2013-04-04 06:28:00,51.6,48.4,29.71,East,90,0.0,0.0,89,0.04,,,0.14,WUHU21623XXSP,2013-04-04 13:28:00,
2013-04-04 06:29:00,51.6,48.4,29.70,East,90,0.0,0.0,89,0.04,,,0.14,WUHU21623XXSP,2013-04-04 13:29:00,
2013-04-04 06:30:00,51.6,48.4,29.70,East,90,0.0,0.0,89,0.04,,,0.14,WUHU21623XXSP,2013-04-04 13:30:00,
2013-04-04 06:31:00,51.6,48.4,29.70,East,90,0.0,0.0,89,0.04,,,0.14,WUHU21623XXSP,2013-04-04 13:31:00,
2013-04-04 06:33:00,51.6,48.4,29.71,East,90,0.0,0.0,89,0.04,,,0.14,WUHU21623XXSP,2013-04-04 13:33:00,
2013-04-04 06:34:00,51.6,48.4,29.70,East,90,0.0,0.0,89,0.04,,,0.14,WUHU21623XXSP,2013-04-04 13:34:00,
2013-04-04 06:36:00,51.6,48.4,29.70,East,90,0.0,0.0,89,0.04,,,0.14,WUHU21623XXSP,2013-04-04 13:36:00,
2013-04-04 06:38:00,51.6,48.4,29.70,East,90,0.0,0.0,89,0.06,,,0.16,WUHU21623XXSP,2013-04-04 13:38:00,
2013-04-04 06:39:00,51.6,48.4,29.70,East,90,0.0,0.0,89,0.06,,,0.16,WUHU21623XXSP,2013-04-04 13:39:00,
2013-04-04 06:41:00,51.6,48.4,29.70,East,90,0.0,0.0,89,0.06,,,0.16,WUHU21623XXSP,2013-04-04 13:41:00,
2013-04-04 06:43:00,51.6,48.4,29.70,East,90,0.0,0.0,89,0.06,,,0.16,WUHU21623XXSP,2013-04-04 13:43:00,
2013-04-04 06:44:00,51.6,48.4,29.70,East,90,0.0,0.0,89,0.06,,,0.16,WUHU21623XXSP,2013-04-04 13:44:00,
2013-04-04 06:46:00,51.6,48.4,29.70,East,90,0.0,0.0,89,0.06,,,0.16,WUHU21623XXSP,2013-04-04 13:46:00,
2013-04-04 06:48:00,51.6,48.4,29.70,East,90,0.0,0.0,89,0.04,,,0.16,WUHU21623XXSP,2013-04-04 13:48:00,
2013-04-04 06:50:00,51.6,48.4,29.70,East,90,0.0,0.0,89,0.04,,,0.16,WUHU21623XXSP,2013-04-04 13:50:00,
2013-04-04 06:51:00,51.6,48.4,29.70,East,90,0.0,0.0,89,0.04,,,0.16,WUHU21623XXSP,2013-04-04 13:51:00,
2013-04-04 06:53:00,51.6,48.4,29.70,East,90,0.0,0.0,89,0.04,,,0.16,WUHU21623XXSP,2013-04-04 13:53:00,
2013-04-04 06:55:00,51.6,48.4,29.70,East,90,0.0,0.0,89,0.04,,,0.16,WUHU21623XXSP,2013-04-04 13:55:00,
2013-04-04 06:56:00,51.6,48.4,29.70,East,90,0.0,0.0,89,0.04,,,0.16,WUHU21623XXSP,2013-04-04 13:56:00,
2013-04-04 06:58:00,51.6,48.4,29.70,East,90,0.0,0.0,89,0.04,,,0.16,WUHU21623XXSP,2013-04-04 13:58:00,
2013-04-04 07:00:00,51.6,48.4,29.69,East,90,0.0,0.0,89,0.04,,,0.16,WUHU21623XXSP,2013-04-04 14:00:00,
2013-04-04 07:02:00,51.6,48.4,29.69,East,90,0.0,0.0,89,0.04,,,0.16,WUHU21623XXSP,2013-04-04 14:02:00,
2013-04-04 07:03:00,51.6,48.4,29.70,East,90,0.0,0.0,89,0.04,,,0.16,WUHU21623XXSP,2013-04-04 14:03:00,
2013-04-04 07:05:00,51.6,48.4,29.70,East,90,0.0,0.0,89,0.04,,,0.16,WUHU21623XXSP,2013-04-04 14:05:00,
2013-04-04 07:07:00,51.6,48.4,29.70,East,90,0.0,0.0,89,0.04,,,0.16,WUHU21623XXSP,2013-04-04 14:07:00,
2013-04-04 07:08:00,51.6,48.4,29.70,East,90,0.0,0.0,89,0.04,,,0.16,WUHU21623XXSP,2013-04-04 14:08:00,
2013-04-04 07:10:00,51.8,48.6,29.69,East,90,0.0,0.0,89,0.04,,,0.16,WUHU21623XXSP,2013-04-04 14:10:00,
2013-04-04 07:11:00,51.6,48.4,29.69,East,90,0.0,0.0,89,0.06,,,0.18,WUHU21623XXSP,2013-04-04 14:11:00,
2013-04-04 07:13:00,51.8,48.6,29.69,East,90,0.0,0.0,89,0.06,,,0.18,WUHU21623XXSP,2013-04-04 14:13:00,
2013-04-04 07:14:00,51.6,48.4,29.69,East,90,0.0,0.0,89,0.06,,,0.18,WUHU21623XXSP,2013-04-04 14:14:00,
2013-04-04 07:15:00,51.6,48.4,29.69,East,90,0.0,0.0,89,0.06,,,0.18,WUHU21623XXSP,2013-04-04 14:15:00,
2013-04-04 07:17:00,51.8,48.6,29.69,East,90,0.0,0.0,89,0.04,,,0.18,WUHU21623XXSP,2013-04-04 14:17:00,
2013-04-04 07:19:00,51.8,48.6,29.69,East,90,0.0,0.0,89,0.04,,,0.18,WUHU21623XXSP,2013-04-04 14:19:00,
2013-04-04 07:20:00,51.8,48.6,29.69,East,90,0.0,0.0,89,0.04,,,0.18,WUHU21623XXSP,2013-04-04 14:20:00,
2013-04-04 07:22:00,51.8,48.9,29.69,ESE,112,0.0,0.0,90,0.04,,,0.18,WUHU21623XXSP,2013-04-04 14:22:00,
2013-04-04 07:24:00,51.8,48.6,29.69,ESE,112,0.0,0.0,89,0.04,,,0.18,WUHU21623XXSP,2013-04-04 14:24:00,
2013-04-04 07:25:00,51.8,48.9,29.69,ESE,112,0.0,0.0,90,0.04,,,0.18,WUHU21623XXSP,2013-04-04 14:25:00,
2013-04-04 07:27:00,51.8,48.9,29.69,ESE,112,0.0,0.0,90,0.04,,,0.18,WUHU21623XXSP,2013-04-04 14:27:00,
2013-04-04 07:30:00,51.8,48.9,29.70,ESE,112,0.0,0.0,90,0.04,,,0.18,WUHU21623XXSP,2013-04-04 14:30:00,
2013-04-04 07:32:00,52.0,49.1,29.70,ESE,112,0.0,0.0,90,0.06,,,0.20,WUHU21623XXSP,2013-04-04 14:32:00,
2013-04-04 07:35:00,52.0,49.1,29.70,ESE,112,0.0,0.0,90,0.06,,,0.20,WUHU21623XXSP,2013-04-04 14:35:00,
2013-04-04 07:37:00,52.0,49.1,29.70,East,90,0.0,0.0,90,0.04,,,0.20,WUHU21623XXSP,2013-04-04 14:37:00,
2013-04-04 07:40:00,52.0,49.1,29.70,ESE,112,0.0,0.0,90,0.04,,,0.20,WUHU21623XXSP,2013-04-04 14:40:00,
2013-04-04 07:41:00,52.0,49.1,29.70,ESE,112,0.0,0.0,90,0.04,,,0.20,WUHU21623XXSP,2013-04-04 14:41:00,
2013-04-04 07:43:00,52.0,49.1,29.70,South,180,0.0,0.0,90,0.04,,,0.20,WUHU21623XXSP,2013-04-04 14:43:00,
2013-04-04 07:45:00,52.0,49.1,29.70,South,180,0.0,0.0,90,0.04,,,0.20,WUHU21623XXSP,2013-04-04 14:45:00,
2013-04-04 07:46:00,52.0,49.1,29.70,South,180,0.0,0.0,90,0.04,,,0.20,WUHU21623XXSP,2013-04-04 14:46:00,
2013-04-04 07:49:00,52.0,49.1,29.70,SE,135,0.0,0.0,90,0.04,,,0.20,WUHU21623XXSP,2013-04-04 14:49:00,
2013-04-04 07:51:00,52.0,49.1,29.70,SE,135,0.0,0.0,90,0.04,,,0.20,WUHU21623XXSP,2013-04-04 14:51:00,
2013-04-04 07:52:00,52.0,49.1,29.70,SE,135,0.0,0.0,90,0.04,,,0.20,WUHU21623XXSP,2013-04-04 14:52:00,
2013-04-04 07:54:00,52.2,49.3,29.70,SE,135,0.0,0.0,90,0.04,,,0.20,WUHU21623XXSP,2013-04-04 14:54:00,
2013-04-04 07:56:00,52.2,49.3,29.70,SE,135,0.0,0.0,90,0.04,,,0.20,WUHU21623XXSP,2013-04-04 14:56:00,
2013-04-04 07:57:00,52.2,49.3,29.70,SE,135,0.0,0.0,90,0.04,,,0.20,WUHU21623XXSP,2013-04-04 14:57:00,
2013-04-04 07:59:00,52.2,49.3,29.70,SE,135,0.0,0.0,90,0.06,,,0.20,WUHU21623XXSP,2013-04-04 14:59:00,
2013-04-04 08:02:00,52.2,49.3,29.70,SE,135,0.0,0.0,90,0.06,,,0.22,WUHU21623XXSP,2013-04-04 15:02:00,
2013-04-04 08:05:00,52.2,49.3,29.70,ENE,67,0.0,0.0,90,0.06,,,0.22,WUHU21623XXSP,2013-04-04 15:05:00,
2013-04-04 08:07:00,52.3,49.5,29.70,ENE,67,0.0,0.0,90,0.06,,,0.22,WUHU21623XXSP,2013-04-04 15:07:00,
2013-04-04 08:10:00,52.3,49.5,29.70,ENE,67,0.0,0.0,90,0.04,,,0.22,WUHU21623XXSP,2013-04-04 15:10:00,
2013-04-04 08:12:00,52.3,49.5,29.70,ENE,67,0.0,0.0,90,0.04,,,0.22,WUHU21623XXSP,2013-04-04 15:12:00,
2013-04-04 08:15:00,52.3,49.5,29.71,ENE,67,0.0,0.0,90,0.06,,,0.22,WUHU21623XXSP,2013-04-04 15:15:00,
2013-04-04 08:17:00,52.3,49.5,29.71,ENE,67,0.0,0.0,90,0.06,,,0.24,WUHU21623XXSP,2013-04-04 15:17:00,
2013-04-04 08:20:00,52.3,49.5,29.70,ENE,67,0.0,0.0,90,0.06,,,0.24,WUHU21623XXSP,2013-04-04 15:20:00,
2013-04-04 08:22:00,52.3,49.5,29.69,ENE,67,0.0,0.0,90,0.06,,,0.24,WUHU21623XXSP,2013-04-04 15:22:00,
2013-04-04 08:23:00,52.3,49.5,29.69,ENE,67,0.0,0.0,90,0.06,,,0.24,WUHU21623XXSP,2013-04-04 15:23:00,
2013-04-04 08:26:00,52.3,49.5,29.69,ENE,67,0.0,0.0,90,0.08,,,0.26,WUHU21623XXSP,2013-04-04 15:26:00,
2013-04-04 08:27:00,52.5,49.6,29.69,ENE,67,0.0,0.0,90,0.08,,,0.26,WUHU21623XXSP,2013-04-04 15:27:00,
2013-04-04 08:28:00,52.5,49.6,29.69,ENE,67,0.0,0.0,90,0.08,,,0.26,WUHU21623XXSP,2013-04-04 15:28:00,
2013-04-04 08:31:00,52.5,49.6,29.69,ENE,67,0.0,0.0,90,0.08,,,0.26,WUHU21623XXSP,2013-04-04 15:31:00,
2013-04-04 08:32:00,52.5,49.6,29.69,ENE,67,0.0,0.0,90,0.06,,,0.26,WUHU21623XXSP,2013-04-04 15:32:00,
2013-04-04 08:33:00,52.5,49.6,29.69,ENE,67,0.0,0.0,90,0.06,,,0.26,WUHU21623XXSP,2013-04-04 15:33:00,
2013-04-04 08:34:00,52.5,49.6,29.69,ENE,67,0.0,0.0,90,0.06,,,0.26,WUHU21623XXSP,2013-04-04 15:34:00,
2013-04-04 08:36:00,52.5,49.6,29.69,ENE,67,0.0,0.0,90,0.08,,,0.28,WUHU21623XXSP,2013-04-04 15:36:00,
2013-04-04 08:37:00,52.5,49.6,29.69,ENE,67,0.0,0.0,90,0.08,,,0.28,WUHU21623XXSP,2013-04-04 15:37:00,
2013-04-04 08:38:00,52.7,49.8,29.69,ENE,67,0.0,0.0,90,0.08,,,0.28,WUHU21623XXSP,2013-04-04 15:38:00,
2013-04-04 08:39:00,52.7,49.8,29.69,SE,135,0.0,0.0,90,0.08,,,0.28,WUHU21623XXSP,2013-04-04 15:39:00,
2013-04-04 08:41:00,52.7,49.8,29.69,SE,135,0.0,0.0,90,0.08,,,0.28,WUHU21623XXSP,2013-04-04 15:41:00,
2013-04-04 08:42:00,52.7,49.8,29.69,SE,135,0.0,0.0,90,0.08,,,0.28,WUHU21623XXSP,2013-04-04 15:42:00,
2013-04-04 08:43:00,52.7,49.8,29.69,SE,135,0.0,0.0,90,0.10,,,0.30,WUHU21623XXSP,2013-04-04 15:43:00,
2013-04-04 08:45:00,52.7,49.8,29.69,SE,135,0.0,0.0,90,0.10,,,0.30,WUHU21623XXSP,2013-04-04 15:45:00,
2013-04-04 08:47:00,52.7,49.8,29.69,South,180,0.0,2.7,90,0.10,,,0.30,WUHU21623XXSP,2013-04-04 15:47:00,
2013-04-04 08:49:00,52.7,49.8,29.70,SSW,202,0.0,2.7,90,0.10,,,0.30,WUHU21623XXSP,2013-04-04 15:49:00,
2013-04-04 08:50:00,52.7,49.8,29.70,NE,45,0.0,2.7,90,0.12,,,0.33,WUHU21623XXSP,2013-04-04 15:50:00,
2013-04-04 08:52:00,52.7,49.8,29.69,NE,45,0.0,2.7,90,0.12,,,0.33,WUHU21623XXSP,2013-04-04 15:52:00,
2013-04-04 08:54:00,52.7,49.8,29.69,SSE,157,0.0,2.7,90,0.12,,,0.33,WUHU21623XXSP,2013-04-04 15:54:00,
2013-04-04 08:55:00,52.7,49.8,29.69,South,180,0.0,2.7,90,0.12,,,0.33,WUHU21623XXSP,2013-04-04 15:55:00,
2013-04-04 08:57:00,52.9,50.0,29.69,South,180,0.0,0.0,90,0.10,,,0.33,WUHU21623XXSP,2013-04-04 15:57:00,
2013-04-04 09:00:00,52.9,50.0,29.69,East,90,0.0,0.0,90,0.12,,,0.35,WUHU21623XXSP,2013-04-04 16:00:00,
2013-04-04 09:01:00,52.7,49.8,29.69,NE,45,0.9,0.9,90,0.12,,,0.35,WUHU21623XXSP,2013-04-04 16:01:00,
2013-04-04 09:02:00,52.9,50.0,29.69,NNE,22,0.0,0.9,90,0.12,,,0.35,WUHU21623XXSP,2013-04-04 16:02:00,
2013-04-04 09:03:00,52.9,50.0,29.69,NNE,22,0.0,0.9,90,0.12,,,0.35,WUHU21623XXSP,2013-04-04 16:03:00,
2013-04-04 09:05:00,52.9,50.0,29.69,ESE,112,0.0,0.9,90,0.12,,,0.35,WUHU21623XXSP,2013-04-04 16:05:00,
2013-04-04 09:07:00,52.9,50.0,29.69,ESE,112,0.0,0.9,90,0.12,,,0.35,WUHU21623XXSP,2013-04-04 16:07:00,
2013-04-04 09:08:00,52.9,50.0,29.69,ESE,112,0.0,0.9,90,0.12,,,0.35,WUHU21623XXSP,2013-04-04 16:08:00,
2013-04-04 09:11:00,52.9,50.0,29.69,NNE,22,0.0,0.9,90,0.12,,,0.35,WUHU21623XXSP,2013-04-04 16:11:00,
2013-04-04 09:12:00,52.9,50.0,29.68,SSE,157,0.0,0.0,90,0.10,,,0.35,WUHU21623XXSP,2013-04-04 16:12:00,
2013-04-04 09:13:00,52.9,50.0,29.68,SSE,157,0.0,0.0,90,0.10,,,0.35,WUHU21623XXSP,2013-04-04 16:13:00,
2013-04-04 09:16:00,52.9,50.0,29.68,SSE,157,0.0,0.0,90,0.10,,,0.35,WUHU21623XXSP,2013-04-04 16:16:00,
2013-04-04 09:17:00,52.9,50.0,29.68,SSE,157,0.0,0.0,90,0.10,,,0.35,WUHU21623XXSP,2013-04-04 16:17:00,
2013-04-04 09:18:00,53.2,50.4,29.68,SSE,157,0.0,0.0,90,0.12,,,0.35,WUHU21623XXSP,2013-04-04 16:18:00,
2013-04-04 09:22:00,53.2,50.4,29.68,SE,135,0.0,0.0,90,0.10,,,0.37,WUHU21623XXSP,2013-04-04 16:22:00,
2013-04-04 09:23:00,53.2,50.4,29.68,SE,135,0.0,0.0,90,0.10,,,0.37,WUHU21623XXSP,2013-04-04 16:23:00,
2013-04-04 09:27:00,53.2,50.4,29.68,SE,135,0.0,0.0,90,0.10,,,0.37,WUHU21623XXSP,2013-04-04 16:27:00,
2013-04-04 09:28:00,53.2,50.4,29.68,SE,135,0.0,0.0,90,0.10,,,0.37,WUHU21623XXSP,2013-04-04 16:28:00,
2013-04-04 09:29:00,53.2,50.4,29.68,SSE,157,0.0,0.0,90,0.10,,,0.37,WUHU21623XXSP,2013-04-04 16:29:00,
2013-04-04 09:32:00,53.2,50.4,29.68,SSE,157,0.0,0.0,90,0.08,,,0.37,WUHU21623XXSP,2013-04-04 16:32:00,
2013-04-04 09:33:00,53.2,50.4,29.68,SSE,157,0.0,0.0,90,0.08,,,0.37,WUHU21623XXSP,2013-04-04 16:33:00,
2013-04-04 09:34:00,53.4,50.5,29.68,SSE,157,0.0,0.0,90,0.08,,,0.37,WUHU21623XXSP,2013-04-04 16:34:00,
2013-04-04 09:35:00,53.4,50.5,29.68,SSE,157,0.0,0.0,90,0.08,,,0.37,WUHU21623XXSP,2013-04-04 16:35:00,
2013-04-04 09:37:00,53.4,50.5,29.68,SSE,157,0.0,0.0,90,0.10,,,0.39,WUHU21623XXSP,2013-04-04 16:37:00,
2013-04-04 09:38:00,53.4,50.5,29.68,SSE,157,0.0,0.0,90,0.10,,,0.39,WUHU21623XXSP,2013-04-04 16:38:00,
2013-04-04 09:39:00,53.4,50.5,29.68,SSE,157,0.0,0.0,90,0.10,,,0.39,WUHU21623XXSP,2013-04-04 16:39:00,
2013-04-04 09:40:00,53.4,50.5,29.68,SSE,157,0.0,0.0,90,0.08,,,0.39,WUHU21623XXSP,2013-04-04 16:40:00,
2013-04-04 09:42:00,53.4,50.5,29.68,SE,135,0.0,0.0,90,0.08,,,0.39,WUHU21623XXSP,2013-04-04 16:42:00,
2013-04-04 09:43:00,53.4,50.5,29.68,SE,135,0.0,0.0,90,0.08,,,0.39,WUHU21623XXSP,2013-04-04 16:43:00,
2013-04-04 09:44:00,53.4,50.5,29.67,SE,135,0.0,0.0,90,0.08,,,0.39,WUHU21623XXSP,2013-04-04 16:44:00,
2013-04-04 09:46:00,53.4,50.5,29.67,SE,135,0.0,0.0,90,0.08,,,0.39,WUHU21623XXSP,2013-04-04 16:46:00,
2013-04-04 09:48:00,53.4,50.5,29.67,SE,135,0.0,0.0,90,0.08,,,0.39,WUHU21623XXSP,2013-04-04 16:48:00,
2013-04-04 09:49:00,53.4,50.5,29.67,SE,135,0.0,0.0,90,0.08,,,0.41,WUHU21623XXSP,2013-04-04 16:49:00,
2013-04-04 09:51:00,53.4,50.5,29.67,SE,135,0.0,0.0,90,0.08,,,0.41,WUHU21623XXSP,2013-04-04 16:51:00,
2013-04-04 09:53:00,53.4,50.8,29.67,SE,135,0.0,0.0,91,0.08,,,0.41,WUHU21623XXSP,2013-04-04 16:53:00,
2013-04-04 09:54:00,53.4,50.8,29.67,SE,135,0.0,0.0,91,0.08,,,0.41,WUHU21623XXSP,2013-04-04 16:54:00,
2013-04-04 09:56:00,53.6,51.0,29.67,SE,135,0.0,0.0,91,0.06,,,0.41,WUHU21623XXSP,2013-04-04 16:56:00,
2013-04-04 09:58:00,53.8,51.2,29.67,SE,135,0.0,0.0,91,0.06,,,0.41,WUHU21623XXSP,2013-04-04 16:58:00,
2013-04-04 10:00:00,53.8,51.2,29.68,SE,135,0.0,0.0,91,0.06,,,0.41,WUHU21623XXSP,2013-04-04 17:00:00,
2013-04-04 10:02:00,53.8,51.2,29.67,SE,135,0.0,0.0,91,0.06,,,0.41,WUHU21623XXSP,2013-04-04 17:02:00,
2013-04-04 10:03:00,53.8,51.2,29.67,SE,135,0.0,0.0,91,0.06,,,0.41,WUHU21623XXSP,2013-04-04 17:03:00,
2013-04-04 10:05:00,53.8,51.2,29.67,SE,135,0.0,0.0,91,0.06,,,0.41,WUHU21623XXSP,2013-04-04 17:05:00,
2013-04-04 10:07:00,53.8,51.2,29.67,SE,135,0.0,0.0,91,0.06,,,0.41,WUHU21623XXSP,2013-04-04 17:07:00,
2013-04-04 10:08:00,53.8,51.2,29.67,SE,135,0.0,0.0,91,0.06,,,0.41,WUHU21623XXSP,2013-04-04 17:08:00,
2013-04-04 10:11:00,53.8,51.2,29.67,SE,135,0.0,0.0,91,0.06,,,0.41,WUHU21623XXSP,2013-04-04 17:11:00,
2013-04-04 10:13:00,53.8,51.2,29.67,NE,45,0.0,0.0,91,0.08,,,0.43,WUHU21623XXSP,2013-04-04 17:13:00,
2013-04-04 10:16:00,53.8,51.2,29.68,NE,45,0.0,0.0,91,0.06,,,0.43,WUHU21623XXSP,2013-04-04 17:16:00,
2013-04-04 10:18:00,54.0,51.4,29.68,NE,45,0.0,0.0,91,0.06,,,0.43,WUHU21623XXSP,2013-04-04 17:18:00,
2013-04-04 10:19:00,54.0,51.4,29.67,NE,45,0.0,0.0,91,0.06,,,0.43,WUHU21623XXSP,2013-04-04 17:19:00,
2013-04-04 10:21:00,54.0,51.4,29.68,SE,135,0.0,0.0,91,0.06,,,0.43,WUHU21623XXSP,2013-04-04 17:21:00,
2013-04-04 10:23:00,54.0,51.4,29.68,SE,135,0.0,0.0,91,0.06,,,0.43,WUHU21623XXSP,2013-04-04 17:23:00,
2013-04-04 10:24:00,54.1,51.5,29.68,SE,135,0.0,0.0,91,0.06,,,0.43,WUHU21623XXSP,2013-04-04 17:24:00,
2013-04-04 10:26:00,54.1,51.5,29.68,SE,135,0.0,0.0,91,0.06,,,0.43,WUHU21623XXSP,2013-04-04 17:26:00,
2013-04-04 10:29:00,54.1,51.5,29.67,SE,135,0.0,0.0,91,0.08,,,0.45,WUHU21623XXSP,2013-04-04 17:29:00,
2013-04-04 10:30:00,54.1,51.5,29.68,SE,135,0.0,0.0,91,0.08,,,0.45,WUHU21623XXSP,2013-04-04 17:30:00,
2013-04-04 10:32:00,54.3,51.7,29.68,SE,135,0.0,0.0,91,0.06,,,0.45,WUHU21623XXSP,2013-04-04 17:32:00,
2013-04-04 10:34:00,54.3,51.7,29.68,NNW,337,14.1,14.1,91,0.06,,,0.45,WUHU21623XXSP,2013-04-04 17:34:00,
2013-04-04 10:35:00,54.3,51.7,29.68,NNW,337,14.1,14.1,91,0.06,,,0.45,WUHU21623XXSP,2013-04-04 17:35:00,
2013-04-04 10:38:00,54.3,51.7,29.68,SE,135,0.0,14.1,91,0.08,,,0.47,WUHU21623XXSP,2013-04-04 17:38:00,
2013-04-04 10:39:00,54.5,51.9,29.68,SE,135,0.0,14.1,91,0.08,,,0.47,WUHU21623XXSP,2013-04-04 17:39:00,
2013-04-04 10:40:00,54.3,51.7,29.68,SE,135,0.0,14.1,91,0.08,,,0.47,WUHU21623XXSP,2013-04-04 17:40:00,
2013-04-04 10:43:00,54.5,51.9,29.68,SE,135,0.0,14.1,91,0.08,,,0.47,WUHU21623XXSP,2013-04-04 17:43:00,
2013-04-04 10:45:00,54.7,52.1,29.67,SE,135,0.0,0.0,91,0.08,,,0.47,WUHU21623XXSP,2013-04-04 17:45:00,
2013-04-04 10:46:00,54.7,52.1,29.67,SE,135,0.0,0.0,91,0.08,,,0.47,WUHU21623XXSP,2013-04-04 17:46:00,
2013-04-04 10:49:00,54.7,52.1,29.67,SE,135,0.0,0.0,91,0.08,,,0.49,WUHU21623XXSP,2013-04-04 17:49:00,
2013-04-04 10:50:00,54.7,52.1,29.68,SE,135,0.0,0.0,91,0.08,,,0.49,WUHU21623XXSP,2013-04-04 17:50:00,
2013-04-04 10:52:00,54.7,52.1,29.68,ENE,67,0.0,2.5,91,0.08,,,0.49,WUHU21623XXSP,2013-04-04 17:52:00,
2013-04-04 10:54:00,55.0,52.4,29.68,South,180,0.0,3.6,91,0.08,,,0.49,WUHU21623XXSP,2013-04-04 17:54:00,
2013-04-04 10:55:00,55.0,52.4,29.68,SE,135,0.0,3.6,91,0.08,,,0.49,WUHU21623XXSP,2013-04-04 17:55:00,
2013-04-04 10:57:00,55.0,52.4,29.68,SE,135,0.0,3.6,91,0.08,,,0.49,WUHU21623XXSP,2013-04-04 17:57:00,
2013-04-04 10:59:00,55.2,52.6,29.68,WSW,247,0.0,3.6,91,0.08,,,0.49,WUHU21623XXSP,2013-04-04 17:59:00,
2013-04-04 11:00:00,55.2,52.6,29.68,WSW,247,0.0,3.6,91,0.08,,,0.49,WUHU21623XXSP,2013-04-04 18:00:00,
2013-04-04 11:02:00,55.2,52.6,29.68,South,180,0.0,1.6,91,0.10,,,0.51,WUHU21623XXSP,2013-04-04 18:02:00,
2013-04-04 11:05:00,55.2,52.6,29.68,SSE,157,0.0,0.0,91,0.10,,,0.51,WUHU21623XXSP,2013-04-04 18:05:00,
2013-04-04 11:08:00,55.2,52.6,29.67,SSE,157,0.0,0.0,91,0.08,,,0.51,WUHU21623XXSP,2013-04-04 18:08:00,
2013-04-04 11:10:00,55.2,52.6,29.67,SE,135,0.0,1.8,91,0.08,,,0.51,WUHU21623XXSP,2013-04-04 18:10:00,
2013-04-04 11:13:00,55.6,53.0,29.67,NE,45,0.0,1.8,91,0.08,,,0.51,WUHU21623XXSP,2013-04-04 18:13:00,
2013-04-04 11:15:00,55.6,53.0,29.67,ESE,112,1.8,1.8,91,0.08,,,0.51,WUHU21623XXSP,2013-04-04 18:15:00,
2013-04-04 11:16:00,55.6,53.0,29.67,SE,135,0.2,2.0,91,0.08,,,0.51,WUHU21623XXSP,2013-04-04 18:16:00,
2013-04-04 11:18:00,55.8,53.2,29.67,SE,135,0.0,2.0,91,0.08,,,0.51,WUHU21623XXSP,2013-04-04 18:18:00,
2013-04-04 11:20:00,55.8,53.2,29.67,East,90,0.0,2.0,91,0.08,,,0.51,WUHU21623XXSP,2013-04-04 18:20:00,
2013-04-04 11:22:00,55.9,53.3,29.67,SSE,157,0.0,2.0,91,0.08,,,0.51,WUHU21623XXSP,2013-04-04 18:22:00,
2013-04-04 11:24:00,55.9,53.3,29.67,South,180,0.0,2.2,91,0.08,,,0.51,WUHU21623XXSP,2013-04-04 18:24:00,
2013-04-04 11:26:00,55.9,53.3,29.68,SSE,157,0.0,2.2,91,0.08,,,0.51,WUHU21623XXSP,2013-04-04 18:26:00,
2013-04-04 11:27:00,55.9,53.3,29.68,ESE,112,1.8,4.0,91,0.08,,,0.51,WUHU21623XXSP,2013-04-04 18:27:00,
2013-04-04 11:29:00,56.1,53.5,29.68,SE,135,0.0,4.7,91,0.06,,,0.51,WUHU21623XXSP,2013-04-04 18:29:00,
2013-04-04 11:31:00,56.1,53.5,29.68,SSW,202,3.4,4.7,91,0.06,,,0.51,WUHU21623XXSP,2013-04-04 18:31:00,
2013-04-04 11:32:00,56.1,53.5,29.68,SSE,157,0.0,4.7,91,0.06,,,0.51,WUHU21623XXSP,2013-04-04 18:32:00,
2013-04-04 11:35:00,56.1,53.5,29.68,SSE,157,0.0,4.7,91,0.06,,,0.51,WUHU21623XXSP,2013-04-04 18:35:00,
2013-04-04 11:36:00,56.1,53.5,29.68,SSE,157,0.0,4.7,91,0.04,,,0.51,WUHU21623XXSP,2013-04-04 18:36:00,
2013-04-04 11:37:00,56.1,53.5,29.68,SSW,202,0.0,4.7,91,0.04,,,0.51,WUHU21623XXSP,2013-04-04 18:37:00,
2013-04-04 11:40:00,56.3,53.7,29.68,South,180,0.0,4.9,91,0.06,,,0.53,WUHU21623XXSP,2013-04-04 18:40:00,
2013-04-04 11:41:00,56.3,53.7,29.68,SE,135,1.1,4.9,91,0.06,,,0.53,WUHU21623XXSP,2013-04-04 18:41:00,
2013-04-04 11:42:00,56.3,53.7,29.68,SE,135,4.9,4.9,91,0.06,,,0.53,WUHU21623XXSP,2013-04-04 18:42:00,
2013-04-04 11:43:00,56.3,53.7,29.69,SSE,157,4.3,7.4,91,0.06,,,0.53,WUHU21623XXSP,2013-04-04 18:43:00,
2013-04-04 11:45:00,56.3,53.7,29.69,WSW,247,7.2,11.0,91,0.04,,,0.53,WUHU21623XXSP,2013-04-04 18:45:00,
2013-04-04 11:47:00,56.3,53.7,29.69,WSW,247,0.0,11.0,91,0.04,,,0.53,WUHU21623XXSP,2013-04-04 18:47:00,
2013-04-04 11:48:00,56.3,53.7,29.69,NNW,337,2.0,11.0,91,0.04,,,0.53,WUHU21623XXSP,2013-04-04 18:48:00,
2013-04-04 11:50:00,56.3,53.7,29.69,South,180,1.6,11.0,91,0.04,,,0.53,WUHU21623XXSP,2013-04-04 18:50:00,
2013-04-04 11:53:00,56.3,53.7,29.69,East,90,4.0,11.0,91,0.04,,,0.53,WUHU21623XXSP,2013-04-04 18:53:00,
2013-04-04 11:55:00,56.3,53.7,29.70,SSE,157,1.8,8.3,91,0.04,,,0.53,WUHU21623XXSP,2013-04-04 18:55:00,
2013-04-04 11:58:00,56.1,53.5,29.69,SSE,157,1.3,11.2,91,0.04,,,0.53,WUHU21623XXSP,2013-04-04 18:58:00,
2013-04-04 11:59:00,56.3,53.7,29.69,SSE,157,4.7,16.3,91,0.04,,,0.53,WUHU21623XXSP,2013-04-04 18:59:00,
2013-04-04 12:00:00,56.3,53.7,29.69,West,270,2.7,16.3,91,0.02,,,0.53,WUHU21623XXSP,2013-04-04 19:00:00,
2013-04-04 12:03:00,56.1,53.5,29.70,SSE,157,3.4,16.3,91,0.04,,,0.55,WUHU21623XXSP,2013-04-04 19:03:00,
2013-04-04 12:05:00,56.3,53.7,29.70,SE,135,9.4,16.3,91,0.04,,,0.55,WUHU21623XXSP,2013-04-04 19:05:00,
2013-04-04 12:08:00,56.1,53.5,29.71,SW,225,1.8,16.3,91,0.04,,,0.55,WUHU21623XXSP,2013-04-04 19:08:00,
2013-04-04 12:10:00,56.1,53.5,29.71,ENE,67,4.9,14.1,91,0.04,,,0.55,WUHU21623XXSP,2013-04-04 19:10:00,
2013-04-04 12:13:00,56.1,53.5,29.71,WNW,292,3.1,12.3,91,0.06,,,0.55,WUHU21623XXSP,2013-04-04 19:13:00,
2013-04-04 12:15:00,56.1,53.5,29.71,West,270,6.3,12.3,91,0.06,,,0.55,WUHU21623XXSP,2013-04-04 19:15:00,
2013-04-04 12:18:00,55.9,53.3,29.71,ESE,112,1.8,20.6,91,0.06,,,0.00,WUHU21623XXSP,2013-04-04 19:18:00,
2013-04-04 12:19:00,55.9,53.3,29.71,SE,135,4.0,20.6,91,0.06,,,0.00,WUHU21623XXSP,2013-04-04 19:19:00,
2013-04-04 12:20:00,55.8,53.3,29.72,SSE,157,6.3,20.6,91,0.06,,,0.00,WUHU21623XXSP,2013-04-04 19:20:00,
2013-04-04 12:23:00,55.8,53.2,29.72,WSW,247,5.8,20.6,91,0.06,,,0.00,WUHU21623XXSP,2013-04-04 19:23:00,
2013-04-04 12:24:00,55.8,53.2,29.72,SSW,202,12.1,20.6,91,0.06,,,0.00,WUHU21623XXSP,2013-04-04 19:24:00,
2013-04-04 12:25:00,55.8,52.9,29.72,South,180,0.0,20.6,90,0.06,,,0.00,WUHU21623XXSP,2013-04-04 19:25:00,
2013-04-04 12:26:00,55.8,52.9,29.72,ESE,112,1.1,20.6,90,0.06,,,0.00,WUHU21623XXSP,2013-04-04 19:26:00,
2013-04-04 12:29:00,55.6,52.7,29.72,SSE,157,13.2,14.1,90,0.06,,,0.00,WUHU21623XXSP,2013-04-04 19:29:00,
2013-04-04 12:30:00,55.6,52.7,29.72,ESE,112,0.0,14.1,90,0.06,,,0.00,WUHU21623XXSP,2013-04-04 19:30:00,
2013-04-04 12:31:00,55.6,52.7,29.72,NW,315,3.1,14.3,90,0.06,,,0.00,WUHU21623XXSP,2013-04-04 19:31:00,
2013-04-04 12:34:00,55.4,52.5,29.72,ENE,67,2.0,14.3,90,0.08,,,0.02,WUHU21623XXSP,2013-04-04 19:34:00,
2013-04-04 12:35:00,55.4,52.5,29.72,West,270,17.4,17.4,90,0.08,,,0.02,WUHU21623XXSP,2013-04-04 19:35:00,
2013-04-04 12:36:00,55.4,52.5,29.72,South,180,16.1,24.8,90,0.06,,,0.02,WUHU21623XXSP,2013-04-04 19:36:00,
2013-04-04 12:39:00,55.4,52.5,29.72,SSE,157,4.3,24.8,90,0.06,,,0.02,WUHU21623XXSP,2013-04-04 19:39:00,
2013-04-04 12:40:00,55.4,52.5,29.73,NW,315,0.0,24.8,90,0.06,,,0.02,WUHU21623XXSP,2013-04-04 19:40:00,
2013-04-04 12:41:00,55.2,52.3,29.73,SSW,202,4.5,24.8,90,0.06,,,0.02,WUHU21623XXSP,2013-04-04 19:41:00,
2013-04-04 12:42:00,55.2,52.3,29.73,South,180,2.2,24.8,90,0.06,,,0.02,WUHU21623XXSP,2013-04-04 19:42:00,
2013-04-04 12:45:00,55.4,52.5,29.73,WSW,247,0.7,16.1,90,0.06,,,0.02,WUHU21623XXSP,2013-04-04 19:45:00,
2013-04-04 12:47:00,55.2,52.3,29.73,WSW,247,2.5,11.0,90,0.06,,,0.02,WUHU21623XXSP,2013-04-04 19:47:00,
2013-04-04 12:50:00,55.2,52.3,29.73,SE,135,4.9,11.0,90,0.06,,,0.02,WUHU21623XXSP,2013-04-04 19:50:00,
2013-04-04 12:51:00,55.2,52.3,29.73,SW,225,11.0,11.0,90,0.06,,,0.02,WUHU21623XXSP,2013-04-04 19:51:00,
2013-04-04 12:52:00,55.2,52.3,29.73,SSE,157,0.0,15.7,90,0.06,,,0.02,WUHU21623XXSP,2013-04-04 19:52:00,
2013-04-04 12:55:00,55.2,52.3,29.73,SSW,202,2.9,15.7,90,0.06,,,0.02,WUHU21623XXSP,2013-04-04 19:55:00,
2013-04-04 12:56:00,55.2,52.3,29.73,SW,225,0.0,15.7,90,0.06,,,0.02,WUHU21623XXSP,2013-04-04 19:56:00,
2013-04-04 12:57:00,55.2,52.3,29.74,SW,225,7.4,15.7,90,0.08,,,0.04,WUHU21623XXSP,2013-04-04 19:57:00,
2013-04-04 12:58:00,55.2,52.3,29.74,SSE,157,1.6,15.7,90,0.08,,,0.04,WUHU21623XXSP,2013-04-04 19:58:00,
2013-04-04 13:00:00,55.2,52.3,29.74,SW,225,15.7,15.7,90,0.06,,,0.04,WUHU21623XXSP,2013-04-04 20:00:00,
2013-04-04 13:01:00,55.2,52.3,29.74,SSE,157,3.8,15.7,90,0.06,,,0.04,WUHU21623XXSP,2013-04-04 20:01:00,
2013-04-04 13:03:00,55.2,52.3,29.74,SW,225,2.7,15.7,90,0.06,,,0.04,WUHU21623XXSP,2013-04-04 20:03:00,
2013-04-04 13:05:00,55.2,52.3,29.74,WSW,247,14.5,15.7,90,0.06,,,0.04,WUHU21623XXSP,2013-04-04 20:05:00,
2013-04-04 13:06:00,55.4,52.5,29.74,SW,225,0.7,15.7,90,0.06,,,0.04,WUHU21623XXSP,2013-04-04 20:06:00,
2013-04-04 13:08:00,55.2,52.3,29.75,ESE,112,0.0,15.7,90,0.06,,,0.04,WUHU21623XXSP,2013-04-04 20:08:00,
2013-04-04 13:11:00,55.2,52.3,29.75,SW,225,1.8,15.2,90,0.06,,,0.04,WUHU21623XXSP,2013-04-04 20:11:00,
2013-04-04 13:12:00,55.2,52.3,29.75,SW,225,1.6,15.2,90,0.04,,,0.04,WUHU21623XXSP,2013-04-04 20:12:00,
2013-04-04 13:13:00,55.4,52.5,29.75,SSE,157,0.9,15.2,90,0.04,,,0.04,WUHU21623XXSP,2013-04-04 20:13:00,
2013-04-04 13:14:00,55.2,52.3,29.75,SE,135,3.6,15.2,90,0.04,,,0.04,WUHU21623XXSP,2013-04-04 20:14:00,
2013-04-04 13:16:00,55.2,52.3,29.75,North,0,0.7,15.2,90,0.04,,,0.04,WUHU21623XXSP,2013-04-04 20:16:00,
2013-04-04 13:17:00,55.2,52.3,29.75,SE,135,2.5,15.2,90,0.04,,,0.04,WUHU21623XXSP,2013-04-04 20:17:00,
2013-04-04 13:18:00,55.2,52.3,29.75,SSW,202,2.5,15.2,90,0.04,,,0.04,WUHU21623XXSP,2013-04-04 20:18:00,
2013-04-04 13:19:00,55.4,52.5,29.75,West,270,5.4,11.9,90,0.04,,,0.04,WUHU21623XXSP,2013-04-04 20:19:00,
2013-04-04 13:21:00,55.4,52.5,29.75,SW,225,7.2,11.9,90,0.04,,,0.04,WUHU21623XXSP,2013-04-04 20:21:00,
2013-04-04 13:22:00,55.4,52.5,29.75,West,270,4.7,11.9,90,0.04,,,0.04,WUHU21623XXSP,2013-04-04 20:22:00,
2013-04-04 13:23:00,55.4,52.5,29.75,South,180,12.3,12.3,90,0.04,,,0.04,WUHU21623XXSP,2013-04-04 20:23:00,
2013-04-04 13:24:00,55.4,52.5,29.75,SSE,157,2.9,12.3,90,0.04,,,0.04,WUHU21623XXSP,2013-04-04 20:24:00,
2013-04-04 13:26:00,55.4,52.5,29.75,SSE,157,2.0,12.3,90,0.04,,,0.04,WUHU21623XXSP,2013-04-04 20:26:00,
2013-04-04 13:27:00,55.4,52.5,29.75,West,270,6.9,12.3,90,0.04,,,0.04,WUHU21623XXSP,2013-04-04 20:27:00,
2013-04-04 13:29:00,55.6,52.7,29.75,South,180,1.8,16.3,90,0.04,,,0.04,WUHU21623XXSP,2013-04-04 20:29:00,
2013-04-04 13:32:00,55.6,52.7,29.75,SW,225,6.3,18.1,90,0.04,,,0.06,WUHU21623XXSP,2013-04-04 20:32:00,
2013-04-04 13:34:00,55.6,52.7,29.76,WSW,247,1.3,18.1,90,0.04,,,0.06,WUHU21623XXSP,2013-04-04 20:34:00,
2013-04-04 13:35:00,55.6,52.7,29.76,WSW,247,1.3,18.1,90,0.04,,,0.06,WUHU21623XXSP,2013-04-04 20:35:00,
2013-04-04 13:37:00,55.6,52.7,29.75,SSW,202,3.4,18.1,90,0.04,,,0.06,WUHU21623XXSP,2013-04-04 20:37:00,
2013-04-04 13:39:00,55.6,52.7,29.76,SE,135,2.0,9.6,90,0.04,,,0.06,WUHU21623XXSP,2013-04-04 20:39:00,
2013-04-04 13:40:00,55.6,52.7,29.76,SSE,157,5.8,9.6,90,0.04,,,0.06,WUHU21623XXSP,2013-04-04 20:40:00,
2013-04-04 13:42:00,55.6,52.7,29.76,SSE,157,1.8,9.6,90,0.04,,,0.06,WUHU21623XXSP,2013-04-04 20:42:00,
2013-04-04 13:43:00,55.6,52.7,29.76,SE,135,4.3,9.6,90,0.04,,,0.06,WUHU21623XXSP,2013-04-04 20:43:00,
2013-04-04 13:44:00,55.6,52.7,29.76,SW,225,6.3,8.7,90,0.04,,,0.06,WUHU21623XXSP,2013-04-04 20:44:00,
2013-04-04 13:45:00,55.6,52.7,29.76,SSE,157,5.4,8.7,90,0.04,,,0.06,WUHU21623XXSP,2013-04-04 20:45:00,
2013-04-04 13:47:00,55.6,52.7,29.76,SSE,157,7.2,8.7,90,0.04,,,0.06,WUHU21623XXSP,2013-04-04 20:47:00,
2013-04-04 13:48:00,55.6,52.7,29.76,NW,315,0.4,8.7,90,0.04,,,0.06,WUHU21623XXSP,2013-04-04 20:48:00,
2013-04-04 13:49:00,55.6,52.7,29.76,West,270,2.9,8.7,90,0.04,,,0.06,WUHU21623XXSP,2013-04-04 20:49:00,
2013-04-04 13:51:00,55.6,52.7,29.76,SW,225,8.1,8.7,90,0.04,,,0.06,WUHU21623XXSP,2013-04-04 20:51:00,
2013-04-04 13:52:00,55.6,52.7,29.76,SSE,157,2.0,12.5,90,0.04,,,0.06,WUHU21623XXSP,2013-04-04 20:52:00,
2013-04-04 13:53:00,55.6,52.7,29.76,SE,135,0.0,12.5,90,0.04,,,0.06,WUHU21623XXSP,2013-04-04 20:53:00,
2013-04-04 13:54:00,55.6,52.7,29.77,SW,225,2.5,12.5,90,0.04,,,0.06,WUHU21623XXSP,2013-04-04 20:54:00,
2013-04-04 13:56:00,55.6,52.7,29.76,WSW,247,1.3,12.5,90,0.02,,,0.06,WUHU21623XXSP,2013-04-04 20:56:00,
2013-04-04 13:57:00,55.6,52.7,29.76,South,180,0.0,12.5,90,0.02,,,0.06,WUHU21623XXSP,2013-04-04 20:57:00,
2013-04-04 13:58:00,55.8,52.9,29.76,South,180,5.8,12.5,90,0.02,,,0.06,WUHU21623XXSP,2013-04-04 20:58:00,
2013-04-04 13:59:00,55.8,52.7,29.76,South,180,3.8,12.5,90,0.02,,,0.06,WUHU21623XXSP,2013-04-04 20:59:00,
2013-04-04 14:02:00,55.8,52.9,29.77,SW,225,2.9,12.5,90,0.02,,,0.06,WUHU21623XXSP,2013-04-04 21:02:00,
2013-04-04 14:04:00,55.9,53.1,29.77,SE,135,1.8,12.1,90,0.02,,,0.06,WUHU21623XXSP,2013-04-04 21:04:00,
2013-04-04 14:07:00,55.9,53.1,29.77,SSW,202,0.0,12.1,90,0.02,,,0.06,WUHU21623XXSP,2013-04-04 21:07:00,
2013-04-04 14:09:00,55.9,53.1,29.77,NW,315,0.0,12.1,90,0.02,,,0.06,WUHU21623XXSP,2013-04-04 21:09:00,
2013-04-04 14:10:00,55.9,53.1,29.77,SSE,157,1.1,8.9,90,0.02,,,0.06,WUHU21623XXSP,2013-04-04 21:10:00,
2013-04-04 14:12:00,55.9,53.1,29.77,SW,225,0.0,8.9,90,0.02,,,0.06,WUHU21623XXSP,2013-04-04 21:12:00,
2013-04-04 14:13:00,55.9,53.1,29.77,South,180,2.5,8.9,90,0.02,,,0.06,WUHU21623XXSP,2013-04-04 21:13:00,
2013-04-04 14:14:00,56.1,53.2,29.77,ESE,112,0.0,9.6,90,0.02,,,0.06,WUHU21623XXSP,2013-04-04 21:14:00,
2013-04-04 14:15:00,55.9,53.1,29.77,WSW,247,1.1,9.6,90,0.02,,,0.06,WUHU21623XXSP,2013-04-04 21:15:00,
2013-04-04 14:17:00,55.9,53.1,29.77,SSE,157,8.3,9.6,90,0.02,,,0.06,WUHU21623XXSP,2013-04-04 21:17:00,
2013-04-04 14:18:00,55.9,53.1,29.77,SSW,202,2.0,9.6,90,0.02,,,0.06,WUHU21623XXSP,2013-04-04 21:18:00,
2013-04-04 14:19:00,55.9,53.1,29.77,South,180,0.0,9.6,90,0.02,,,0.06,WUHU21623XXSP,2013-04-04 21:19:00,
2013-04-04 14:20:00,55.9,53.1,29.77,NW,315,0.0,9.6,90,0.02,,,0.06,WUHU21623XXSP,2013-04-04 21:20:00,
2013-04-04 14:22:00,55.9,53.1,29.77,SW,225,2.9,9.6,90,0.02,,,0.06,WUHU21623XXSP,2013-04-04 21:22:00,
2013-04-04 14:23:00,55.9,53.1,29.77,SSW,202,4.5,9.6,90,0.02,,,0.06,WUHU21623XXSP,2013-04-04 21:23:00,
2013-04-04 14:25:00,56.1,53.2,29.77,NE,45,5.6,8.7,90,0.02,,,0.06,WUHU21623XXSP,2013-04-04 21:25:00,
2013-04-04 14:27:00,56.1,53.2,29.77,SSW,202,4.3,14.3,90,0.02,,,0.06,WUHU21623XXSP,2013-04-04 21:27:00,
2013-04-04 14:28:00,56.3,53.4,29.77,SSW,202,6.0,14.3,90,0.00,,,0.06,WUHU21623XXSP,2013-04-04 21:28:00,
2013-04-04 14:30:00,56.3,53.4,29.77,SW,225,14.3,14.3,90,0.00,,,0.06,WUHU21623XXSP,2013-04-04 21:30:00,
2013-04-04 14:33:00,56.5,53.6,29.77,SE,135,4.9,14.3,90,0.00,,,0.06,WUHU21623XXSP,2013-04-04 21:33:00,
2013-04-04 14:35:00,56.7,53.8,29.77,SW,225,2.7,14.5,90,0.00,,,0.06,WUHU21623XXSP,2013-04-04 21:35:00,
2013-04-04 14:36:00,56.5,53.6,29.77,WSW,247,3.8,14.5,90,0.00,,,0.06,WUHU21623XXSP,2013-04-04 21:36:00,
2013-04-04 14:38:00,56.8,54.0,29.77,SSE,157,0.0,14.5,90,0.00,,,0.06,WUHU21623XXSP,2013-04-04 21:38:00,
2013-04-04 14:40:00,56.8,54.0,29.78,SSW,202,4.7,14.5,90,0.00,,,0.06,WUHU21623XXSP,2013-04-04 21:40:00,
2013-04-04 14:41:00,56.8,54.0,29.78,South,180,1.6,14.5,90,0.00,,,0.06,WUHU21623XXSP,2013-04-04 21:41:00,
2013-04-04 14:43:00,56.8,54.0,29.78,South,180,2.9,14.5,90,0.00,,,0.06,WUHU21623XXSP,2013-04-04 21:43:00,
2013-04-04 14:44:00,56.8,53.6,29.77,SSE,157,3.4,14.5,89,0.00,,,0.06,WUHU21623XXSP,2013-04-04 21:44:00,
2013-04-04 14:45:00,56.8,53.6,29.78,SSW,202,2.7,8.5,89,0.00,,,0.06,WUHU21623XXSP,2013-04-04 21:45:00,
2013-04-04 14:48:00,56.8,53.6,29.78,SSW,202,3.1,11.9,89,0.00,,,0.06,WUHU21623XXSP,2013-04-04 21:48:00,
2013-04-04 14:49:00,56.8,53.6,29.78,SSW,202,1.6,11.9,89,0.00,,,0.06,WUHU21623XXSP,2013-04-04 21:49:00,
2013-04-04 14:50:00,56.8,53.6,29.78,SSE,157,0.0,11.9,89,0.00,,,0.06,WUHU21623XXSP,2013-04-04 21:50:00,
2013-04-04 14:53:00,56.5,53.3,29.78,SSW,202,2.5,12.8,89,0.00,,,0.06,WUHU21623XXSP,2013-04-04 21:53:00,
2013-04-04 14:54:00,56.5,53.0,29.78,SW,225,4.0,12.8,88,0.00,,,0.06,WUHU21623XXSP,2013-04-04 21:54:00,
2013-04-04 14:56:00,56.5,53.0,29.78,East,90,8.3,12.8,88,0.00,,,0.06,WUHU21623XXSP,2013-04-04 21:56:00,
2013-04-04 14:58:00,56.5,53.0,29.78,ESE,112,4.0,12.8,88,0.00,,,0.06,WUHU21623XXSP,2013-04-04 21:58:00,
2013-04-04 14:59:00,56.5,53.0,29.78,SSW,202,4.0,12.8,88,0.00,,,0.06,WUHU21623XXSP,2013-04-04 21:59:00,
2013-04-04 15:02:00,56.3,52.8,29.78,ESE,112,0.0,11.0,88,0.00,,,0.06,WUHU21623XXSP,2013-04-04 22:02:00,
2013-04-04 15:03:00,56.1,52.6,29.78,SSW,202,2.9,11.0,88,0.00,,,0.06,WUHU21623XXSP,2013-04-04 22:03:00,
2013-04-04 15:04:00,56.1,52.6,29.78,WSW,247,8.5,11.0,88,0.00,,,0.06,WUHU21623XXSP,2013-04-04 22:04:00,
2013-04-04 15:07:00,56.1,52.6,29.78,SE,135,2.7,14.5,88,0.00,,,0.06,WUHU21623XXSP,2013-04-04 22:07:00,
2013-04-04 15:08:00,56.1,52.6,29.78,SSE,157,3.6,14.5,88,0.00,,,0.06,WUHU21623XXSP,2013-04-04 22:08:00,
2013-04-04 15:09:00,55.9,52.4,29.78,NW,315,0.0,14.5,88,0.00,,,0.06,WUHU21623XXSP,2013-04-04 22:09:00,
2013-04-04 15:10:00,55.9,52.4,29.78,WSW,247,2.5,14.5,88,0.00,,,0.06,WUHU21623XXSP,2013-04-04 22:10:00,
2013-04-04 15:12:00,55.9,52.4,29.78,SE,135,5.4,14.5,88,0.00,,,0.06,WUHU21623XXSP,2013-04-04 22:12:00,
2013-04-04 15:14:00,55.9,52.4,29.78,SE,135,6.5,14.5,88,0.00,,,0.06,WUHU21623XXSP,2013-04-04 22:14:00,
2013-04-04 15:16:00,55.9,52.4,29.78,SSW,202,1.1,14.5,88,0.00,,,0.06,WUHU21623XXSP,2013-04-04 22:16:00,
2013-04-04 15:17:00,55.9,52.4,29.78,SE,135,0.0,14.5,88,0.00,,,0.06,WUHU21623XXSP,2013-04-04 22:17:00,
2013-04-04 15:19:00,55.9,52.4,29.78,West,270,4.5,8.7,88,0.00,,,0.06,WUHU21623XXSP,2013-04-04 22:19:00,
2013-04-04 15:22:00,55.9,52.4,29.78,SSW,202,11.4,13.4,88,0.00,,,0.06,WUHU21623XXSP,2013-04-04 22:22:00,
2013-04-04 15:24:00,55.9,52.4,29.78,East,90,1.3,13.4,88,0.00,,,0.06,WUHU21623XXSP,2013-04-04 22:24:00,
2013-04-04 15:27:00,55.8,52.2,29.78,SSE,157,2.5,13.4,88,0.00,,,0.06,WUHU21623XXSP,2013-04-04 22:27:00,
2013-04-04 15:30:00,55.9,52.4,29.78,ESE,112,0.0,13.4,88,0.00,,,0.06,WUHU21623XXSP,2013-04-04 22:30:00,
2013-04-04 15:32:00,55.9,52.4,29.78,SE,135,4.7,11.9,88,0.00,,,0.06,WUHU21623XXSP,2013-04-04 22:32:00,
2013-04-04 15:35:00,55.9,52.4,29.78,SSE,157,0.0,11.9,88,0.00,,,0.06,WUHU21623XXSP,2013-04-04 22:35:00,
2013-04-04 15:37:00,55.9,52.4,29.78,SE,135,0.0,10.3,88,0.00,,,0.06,WUHU21623XXSP,2013-04-04 22:37:00,
2013-04-04 15:41:00,55.9,52.4,29.79,ESE,112,4.7,13.2,88,0.00,,,0.06,WUHU21623XXSP,2013-04-04 22:41:00,
2013-04-04 15:42:00,56.1,52.6,29.79,SE,135,8.7,13.2,88,0.00,,,0.06,WUHU21623XXSP,2013-04-04 22:42:00,
2013-04-04 15:43:00,56.1,52.6,29.79,SE,135,8.7,13.2,88,0.00,,,0.06,WUHU21623XXSP,2013-04-04 22:43:00,
2013-04-04 15:46:00,55.9,52.4,29.79,ESE,112,4.9,13.2,88,0.00,,,0.06,WUHU21623XXSP,2013-04-04 22:46:00,
2013-04-04 15:48:00,56.1,52.6,29.79,South,180,6.0,13.2,88,0.00,,,0.06,WUHU21623XXSP,2013-04-04 22:48:00,
2013-04-04 15:51:00,56.1,52.6,29.79,SSW,202,0.0,14.5,88,0.00,,,0.06,WUHU21623XXSP,2013-04-04 22:51:00,
2013-04-04 15:53:00,56.1,52.6,29.79,South,180,10.3,14.5,88,0.00,,,0.06,WUHU21623XXSP,2013-04-04 22:53:00,
2013-04-04 15:57:00,56.1,52.6,29.79,SW,225,0.0,14.5,88,0.00,,,0.06,WUHU21623XXSP,2013-04-04 22:57:00,
2013-04-04 15:58:00,56.1,52.6,29.79,NE,45,6.7,14.5,88,0.00,,,0.06,WUHU21623XXSP,2013-04-04 22:58:00,
2013-04-04 16:02:00,55.9,52.4,29.79,SE,135,4.7,12.1,88,0.00,,,0.06,WUHU21623XXSP,2013-04-04 23:02:00,
2013-04-04 16:03:00,55.9,52.4,29.79,SSE,157,0.0,12.1,88,0.00,,,0.06,WUHU21623XXSP,2013-04-04 23:03:00,
2013-04-04 16:07:00,55.8,52.2,29.79,WSW,247,7.8,14.8,88,0.00,,,0.06,WUHU21623XXSP,2013-04-04 23:07:00,
2013-04-04 16:08:00,55.8,52.2,29.79,SW,225,0.0,14.8,88,0.00,,,0.06,WUHU21623XXSP,2013-04-04 23:08:00,
2013-04-04 16:13:00,55.6,52.1,29.79,WSW,247,4.5,14.8,88,0.00,,,0.06,WUHU21623XXSP,2013-04-04 23:13:00,
2013-04-04 16:18:00,55.4,51.9,29.79,SE,135,1.8,12.8,88,0.00,,,0.06,WUHU21623XXSP,2013-04-04 23:18:00,
2013-04-04 16:19:00,55.4,51.9,29.79,SE,135,0.0,12.8,88,0.00,,,0.06,WUHU21623XXSP,2013-04-04 23:19:00,
2013-04-04 16:23:00,55.2,51.7,29.79,SE,135,6.0,12.8,88,0.00,,,0.06,WUHU21623XXSP,2013-04-04 23:23:00,
2013-04-04 16:24:00,55.2,51.7,29.79,SSW,202,4.7,12.8,88,0.00,,,0.06,WUHU21623XXSP,2013-04-04 23:24:00,
2013-04-04 16:25:00,55.2,51.7,29.79,ESE,112,8.5,12.8,88,0.00,,,0.06,WUHU21623XXSP,2013-04-04 23:25:00,
2013-04-04 16:28:00,55.0,51.5,29.80,South,180,4.7,10.5,88,0.00,,,0.06,WUHU21623XXSP,2013-04-04 23:28:00,
2013-04-04 16:29:00,55.0,51.2,29.80,SE,135,5.6,10.5,87,0.00,,,0.06,WUHU21623XXSP,2013-04-04 23:29:00,
2013-04-04 16:30:00,55.0,51.2,29.79,SE,135,8.9,10.5,87,0.00,,,0.06,WUHU21623XXSP,2013-04-04 23:30:00,
2013-04-04 16:33:00,54.9,51.3,29.80,West,270,2.7,10.5,88,0.00,,,0.06,WUHU21623XXSP,2013-04-04 23:33:00,
2013-04-04 16:34:00,54.9,51.3,29.80,SSE,157,0.0,10.5,88,0.00,,,0.06,WUHU21623XXSP,2013-04-04 23:34:00,
2013-04-04 16:35:00,54.9,51.3,29.80,South,180,0.0,10.5,88,0.00,,,0.06,WUHU21623XXSP,2013-04-04 23:35:00,
2013-04-04 16:38:00,54.7,51.2,29.80,South,180,4.7,8.9,88,0.00,,,0.06,WUHU21623XXSP,2013-04-04 23:38:00,
2013-04-04 16:39:00,54.7,51.2,29.80,SE,135,2.5,8.9,88,0.00,,,0.06,WUHU21623XXSP,2013-04-04 23:39:00,
2013-04-04 16:40:00,54.7,51.2,29.79,South,180,5.4,8.9,88,0.02,,,0.08,WUHU21623XXSP,2013-04-04 23:40:00,
2013-04-04 16:45:00,54.3,50.8,29.80,WNW,292,0.0,15.0,88,0.02,,,0.08,WUHU21623XXSP,2013-04-04 23:45:00,
2013-04-04 16:50:00,54.3,50.8,29.80,South,180,0.0,15.0,88,0.02,,,0.08,WUHU21623XXSP,2013-04-04 23:50:00,
2013-04-04 16:55:00,54.1,50.6,29.80,SW,225,0.0,11.4,88,0.04,,,0.10,WUHU21623XXSP,2013-04-04 23:55:00,
2013-04-04 16:56:00,54.1,50.6,29.80,East,90,0.0,7.4,88,0.04,,,0.10,WUHU21623XXSP,2013-04-04 23:56:00,
2013-04-04 17:00:00,54.0,50.5,29.80,South,180,2.9,14.3,88,0.04,,,0.10,WUHU21623XXSP,2013-04-05 00:00:00,
2013-04-04 17:01:00,54.0,50.5,29.80,NW,315,8.9,14.3,88,0.04,,,0.10,WUHU21623XXSP,2013-04-05 00:01:00,
2013-04-04 17:02:00,54.0,50.5,29.80,South,180,5.6,14.3,88,0.04,,,0.10,WUHU21623XXSP,2013-04-05 00:02:00,
2013-04-04 17:05:00,53.8,50.6,29.80,SW,225,2.0,14.3,89,0.04,,,0.10,WUHU21623XXSP,2013-04-05 00:05:00,
2013-04-04 17:06:00,53.8,50.6,29.80,SE,135,4.5,14.3,89,0.04,,,0.10,WUHU21623XXSP,2013-04-05 00:06:00,
2013-04-04 17:07:00,53.8,50.6,29.80,SW,225,3.8,13.0,89,0.06,,,0.10,WUHU21623XXSP,2013-04-05 00:07:00,
2013-04-04 17:11:00,53.8,50.6,29.80,South,180,3.6,9.4,89,0.06,,,0.12,WUHU21623XXSP,2013-04-05 00:11:00,
2013-04-04 17:12:00,53.8,50.6,29.81,SE,135,4.7,8.9,89,0.06,,,0.12,WUHU21623XXSP,2013-04-05 00:12:00,
2013-04-04 17:16:00,53.8,50.6,29.81,West,270,4.3,7.4,89,0.06,,,0.12,WUHU21623XXSP,2013-04-05 00:16:00,
2013-04-04 17:17:00,53.6,50.4,29.80,East,90,1.1,11.0,89,0.06,,,0.12,WUHU21623XXSP,2013-04-05 00:17:00,
2013-04-04 17:18:00,53.6,50.4,29.80,East,90,1.1,11.0,89,0.06,,,0.12,WUHU21623XXSP,2013-04-05 00:18:00,
2013-04-04 17:22:00,53.4,50.2,29.80,SSE,157,2.9,11.0,89,0.08,,,0.14,WUHU21623XXSP,2013-04-05 00:22:00,
2013-04-04 17:23:00,53.4,50.2,29.80,SE,135,2.9,11.0,89,0.08,,,0.14,WUHU21623XXSP,2013-04-05 00:23:00,
2013-04-04 17:27:00,53.4,50.2,29.80,ESE,112,0.0,11.0,89,0.08,,,0.14,WUHU21623XXSP,2013-04-05 00:27:00,
2013-04-04 17:28:00,53.4,50.2,29.80,SE,135,7.8,7.8,89,0.08,,,0.14,WUHU21623XXSP,2013-04-05 00:28:00,
2013-04-04 17:32:00,53.4,50.2,29.80,ESE,112,1.3,7.8,89,0.10,,,0.16,WUHU21623XXSP,2013-04-05 00:32:00,
2013-04-04 17:33:00,53.4,50.2,29.80,ESE,112,0.0,7.8,89,0.10,,,0.16,WUHU21623XXSP,2013-04-05 00:33:00,
2013-04-04 17:37:00,53.4,50.2,29.80,SSE,157,1.3,7.8,89,0.08,,,0.16,WUHU21623XXSP,2013-04-05 00:37:00,
2013-04-04 17:38:00,53.4,50.2,29.80,SW,225,11.6,11.6,89,0.08,,,0.16,WUHU21623XXSP,2013-04-05 00:38:00,
2013-04-04 17:42:00,53.4,50.2,29.80,WNW,292,0.0,11.6,89,0.08,,,0.16,WUHU21623XXSP,2013-04-05 00:42:00,
2013-04-04 17:43:00,53.4,50.2,29.80,SSE,157,8.3,11.6,89,0.08,,,0.16,WUHU21623XXSP,2013-04-05 00:43:00,
2013-04-04 17:47:00,53.4,50.2,29.80,SSW,202,3.6,11.6,89,0.08,,,0.16,WUHU21623XXSP,2013-04-05 00:47:00,
2013-04-04 17:48:00,53.4,50.2,29.80,SSW,202,10.3,11.6,89,0.08,,,0.16,WUHU21623XXSP,2013-04-05 00:48:00,
2013-04-04 17:52:00,53.4,50.2,29.80,WSW,247,0.0,11.4,89,0.06,,,0.16,WUHU21623XXSP,2013-04-05 00:52:00,
2013-04-04 17:53:00,53.4,50.2,29.80,ESE,112,4.0,11.4,89,0.06,,,0.16,WUHU21623XXSP,2013-04-05 00:53:00,
2013-04-04 17:57:00,53.4,50.2,29.80,SSE,157,6.7,10.7,89,0.06,,,0.16,WUHU21623XXSP,2013-04-05 00:57:00,
2013-04-04 17:58:00,53.4,50.2,29.81,SSW,202,2.7,10.7,89,0.06,,,0.16,WUHU21623XXSP,2013-04-05 00:58:00,
2013-04-04 18:02:00,53.4,50.2,29.80,SSW,202,0.9,10.7,89,0.06,,,0.16,WUHU21623XXSP,2013-04-05 01:02:00,
2013-04-04 18:03:00,53.4,50.2,29.80,ESE,112,5.8,10.7,89,0.06,,,0.16,WUHU21623XXSP,2013-04-05 01:03:00,
2013-04-04 18:04:00,53.4,50.2,29.80,ESE,112,1.3,10.7,89,0.04,,,0.16,WUHU21623XXSP,2013-04-05 01:04:00,
2013-04-04 18:07:00,53.4,50.2,29.81,WSW,247,3.6,10.7,89,0.04,,,0.16,WUHU21623XXSP,2013-04-05 01:07:00,
2013-04-04 18:08:00,53.4,50.2,29.81,NE,45,0.0,10.7,89,0.04,,,0.16,WUHU21623XXSP,2013-04-05 01:08:00,
2013-04-04 18:09:00,53.4,50.2,29.81,South,180,2.5,10.7,89,0.04,,,0.16,WUHU21623XXSP,2013-04-05 01:09:00,
2013-04-04 18:13:00,53.2,50.1,29.80,ESE,112,6.3,6.3,89,0.04,,,0.16,WUHU21623XXSP,2013-04-05 01:13:00,
2013-04-04 18:15:00,53.2,50.1,29.81,WNW,292,0.0,6.3,89,0.04,,,0.16,WUHU21623XXSP,2013-04-05 01:15:00,
2013-04-04 18:18:00,53.2,50.1,29.80,South,180,6.7,6.7,89,0.02,,,0.16,WUHU21623XXSP,2013-04-05 01:18:00,
2013-04-04 18:20:00,53.2,50.4,29.80,SE,135,1.6,6.7,90,0.02,,,0.16,WUHU21623XXSP,2013-04-05 01:20:00,
2013-04-04 18:23:00,53.2,50.4,29.80,SE,135,5.4,7.8,90,0.02,,,0.16,WUHU21623XXSP,2013-04-05 01:23:00,
2013-04-04 18:25:00,53.2,50.4,29.80,SSE,157,1.6,7.8,90,0.02,,,0.16,WUHU21623XXSP,2013-04-05 01:25:00,
2013-04-04 18:28:00,53.2,50.4,29.81,SW,225,3.4,7.8,90,0.00,,,0.16,WUHU21623XXSP,2013-04-05 01:28:00,
2013-04-04 18:30:00,53.2,50.4,29.81,West,270,2.2,7.8,90,0.00,,,0.16,WUHU21623XXSP,2013-04-05 01:30:00,
2013-04-04 18:33:00,53.2,50.4,29.80,SE,135,1.8,14.1,90,0.00,,,0.16,WUHU21623XXSP,2013-04-05 01:33:00,
2013-04-04 18:35:00,53.2,50.4,29.80,East,90,5.4,14.1,90,0.00,,,0.16,WUHU21623XXSP,2013-04-05 01:35:00,
2013-04-04 18:36:00,53.2,50.4,29.80,ESE,112,0.0,14.1,90,0.00,,,0.16,WUHU21623XXSP,2013-04-05 01:36:00,
2013-04-04 18:39:00,53.2,50.4,29.81,SSE,157,0.9,14.1,90,0.00,,,0.16,WUHU21623XXSP,2013-04-05 01:39:00,
2013-04-04 18:40:00,53.2,50.4,29.80,South,180,0.0,14.1,90,0.00,,,0.16,WUHU21623XXSP,2013-04-05 01:40:00,
2013-04-04 18:42:00,53.2,50.4,29.81,SSE,157,3.1,14.1,90,0.00,,,0.16,WUHU21623XXSP,2013-04-05 01:42:00,
2013-04-04 18:44:00,53.2,50.4,29.81,South,180,4.5,13.2,90,0.00,,,0.16,WUHU21623XXSP,2013-04-05 01:44:00,
2013-04-04 18:45:00,53.2,50.4,29.81,SW,225,1.6,13.2,90,0.00,,,0.16,WUHU21623XXSP,2013-04-05 01:45:00,
2013-04-04 18:46:00,53.2,50.4,29.81,East,90,2.9,13.2,90,0.00,,,0.16,WUHU21623XXSP,2013-04-05 01:46:00,
2013-04-04 18:47:00,53.2,50.4,29.81,ENE,67,0.0,13.2,90,0.00,,,0.16,WUHU21623XXSP,2013-04-05 01:47:00,
2013-04-04 18:49:00,53.2,50.4,29.81,SW,225,6.3,13.2,90,0.00,,,0.16,WUHU21623XXSP,2013-04-05 01:49:00,
2013-04-04 18:50:00,53.2,50.4,29.81,WSW,247,2.7,13.2,90,0.00,,,0.16,WUHU21623XXSP,2013-04-05 01:50:00,
2013-04-04 18:51:00,53.2,50.4,29.81,SW,225,1.6,13.0,90,0.00,,,0.16,WUHU21623XXSP,2013-04-05 01:51:00,
2013-04-04 18:52:00,53.2,50.4,29.81,NNW,337,0.0,13.0,90,0.00,,,0.16,WUHU21623XXSP,2013-04-05 01:52:00,
2013-04-04 18:55:00,53.2,50.4,29.81,SE,135,2.5,13.0,90,0.00,,,0.16,WUHU21623XXSP,2013-04-05 01:55:00,
2013-04-04 18:56:00,53.2,50.4,29.81,WSW,247,6.9,13.0,90,0.00,,,0.16,WUHU21623XXSP,2013-04-05 01:56:00,
2013-04-04 18:57:00,53.2,50.4,29.81,South,180,8.3,8.3,90,0.00,,,0.16,WUHU21623XXSP,2013-04-05 01:57:00,
2013-04-04 19:00:00,53.2,50.4,29.81,WSW,247,13.2,13.2,90,0.00,,,0.16,WUHU21623XXSP,2013-04-05 02:00:00,
2013-04-04 19:01:00,53.2,50.4,29.81,West,270,1.6,13.2,90,0.00,,,0.16,WUHU21623XXSP,2013-04-05 02:01:00,
2013-04-04 19:03:00,53.2,50.4,29.81,SE,135,4.9,13.2,90,0.00,,,0.16,WUHU21623XXSP,2013-04-05 02:03:00,
2013-04-04 19:05:00,53.2,50.4,29.81,ESE,112,2.5,13.2,90,0.00,,,0.16,WUHU21623XXSP,2013-04-05 02:05:00,
2013-04-04 19:06:00,53.2,50.4,29.81,SW,225,1.6,13.2,90,0.00,,,0.16,WUHU21623XXSP,2013-04-05 02:06:00,
2013-04-04 19:07:00,53.2,50.4,29.81,West,270,0.0,13.2,90,0.00,,,0.16,WUHU21623XXSP,2013-04-05 02:07:00,
2013-04-04 19:08:00,53.2,50.4,29.81,South,180,0.9,13.2,90,0.00,,,0.16,WUHU21623XXSP,2013-04-05 02:08:00,
2013-04-04 19:10:00,53.2,50.4,29.82,SSE,157,4.3,11.4,90,0.00,,,0.16,WUHU21623XXSP,2013-04-05 02:10:00,
2013-04-04 19:11:00,53.2,50.4,29.81,WSW,247,4.9,7.4,90,0.00,,,0.16,WUHU21623XXSP,2013-04-05 02:11:00,
2013-04-04 19:12:00,53.2,50.4,29.81,SW,225,2.0,7.4,90,0.00,,,0.16,WUHU21623XXSP,2013-04-05 02:12:00,
2013-04-04 19:13:00,53.2,50.4,29.82,ESE,112,3.8,7.4,90,0.00,,,0.16,WUHU21623XXSP,2013-04-05 02:13:00,
2013-04-04 19:15:00,53.2,50.4,29.82,WSW,247,5.6,8.1,90,0.00,,,0.16,WUHU21623XXSP,2013-04-05 02:15:00,
2013-04-04 19:16:00,53.2,50.4,29.82,SSW,202,1.1,8.1,90,0.00,,,0.16,WUHU21623XXSP,2013-04-05 02:16:00,
2013-04-04 19:17:00,53.2,50.4,29.82,SSW,202,0.0,8.1,90,0.00,,,0.16,WUHU21623XXSP,2013-04-05 02:17:00,
2013-04-04 19:18:00,53.2,50.4,29.82,West,270,0.0,8.1,90,0.00,,,0.16,WUHU21623XXSP,2013-04-05 02:18:00,
2013-04-04 19:20:00,53.2,50.4,29.82,SW,225,5.8,10.3,90,0.00,,,0.16,WUHU21623XXSP,2013-04-05 02:20:00,
2013-04-04 19:22:00,53.2,50.4,29.82,ESE,112,9.6,10.3,90,0.00,,,0.16,WUHU21623XXSP,2013-04-05 02:22:00,
2013-04-04 19:23:00,53.2,50.4,29.82,SSW,202,0.0,10.3,90,0.00,,,0.16,WUHU21623XXSP,2013-04-05 02:23:00,
2013-04-04 19:26:00,53.1,50.2,29.82,ESE,112,1.3,13.0,90,0.00,,,0.16,WUHU21623XXSP,2013-04-05 02:26:00,
2013-04-04 19:27:00,53.1,50.2,29.82,ESE,112,0.0,13.0,90,0.00,,,0.16,WUHU21623XXSP,2013-04-05 02:27:00,
2013-04-04 19:28:00,53.1,50.2,29.82,SSE,157,0.0,13.0,90,0.00,,,0.16,WUHU21623XXSP,2013-04-05 02:28:00,
2013-04-04 19:31:00,52.9,50.0,29.82,West,270,11.9,13.0,90,0.00,,,0.16,WUHU21623XXSP,2013-04-05 02:31:00,
2013-04-04 19:32:00,52.9,50.0,29.82,SSE,157,2.5,13.0,90,0.00,,,0.16,WUHU21623XXSP,2013-04-05 02:32:00,
2013-04-04 19:33:00,52.9,50.0,29.82,SE,135,2.9,13.0,90,0.00,,,0.16,WUHU21623XXSP,2013-04-05 02:33:00,
2013-04-04 19:37:00,52.9,50.0,29.82,SSW,202,2.7,12.8,90,0.00,,,0.16,WUHU21623XXSP,2013-04-05 02:37:00,
2013-04-04 19:38:00,52.9,50.0,29.82,SW,225,0.0,12.8,90,0.00,,,0.16,WUHU21623XXSP,2013-04-05 02:38:00,
2013-04-04 19:42:00,52.9,50.0,29.82,SE,135,1.8,10.1,90,0.00,,,0.16,WUHU21623XXSP,2013-04-05 02:42:00,
2013-04-04 19:43:00,52.9,50.0,29.82,SE,135,3.1,10.1,90,0.00,,,0.16,WUHU21623XXSP,2013-04-05 02:43:00,
2013-04-04 19:47:00,52.7,49.8,29.82,SW,225,2.0,14.8,90,0.00,,,0.16,WUHU21623XXSP,2013-04-05 02:47:00,
2013-04-04 19:48:00,52.7,49.8,29.82,SSW,202,7.8,14.8,90,0.00,,,0.16,WUHU21623XXSP,2013-04-05 02:48:00,
2013-04-04 19:49:00,52.7,49.8,29.82,SSW,202,7.8,14.8,90,0.00,,,0.16,WUHU21623XXSP,2013-04-05 02:49:00,
2013-04-04 19:52:00,52.7,49.8,29.81,SSW,202,2.7,14.8,90,0.00,,,0.16,WUHU21623XXSP,2013-04-05 02:52:00,
2013-04-04 19:53:00,52.7,49.8,29.81,South,180,5.4,14.8,90,0.00,,,0.16,WUHU21623XXSP,2013-04-05 02:53:00,
2013-04-04 19:54:00,52.5,49.6,29.81,South,180,0.0,14.8,90,0.00,,,0.16,WUHU21623XXSP,2013-04-05 02:54:00,
2013-04-04 19:56:00,52.7,49.8,29.81,SSW,202,0.0,14.8,90,0.00,,,0.16,WUHU21623XXSP,2013-04-05 02:56:00,
2013-04-04 19:57:00,52.7,49.8,29.81,South,180,4.9,12.3,90,0.00,,,0.16,WUHU21623XXSP,2013-04-05 02:57:00,
2013-04-04 19:58:00,52.5,49.6,29.81,SSE,157,0.0,12.3,90,0.00,,,0.16,WUHU21623XXSP,2013-04-05 02:58:00,
2013-04-04 19:59:00,52.5,49.6,29.81,South,180,6.7,12.3,90,0.00,,,0.16,WUHU21623XXSP,2013-04-05 02:59:00,
2013-04-04 20:01:00,52.5,49.6,29.81,South,180,2.2,12.3,90,0.00,,,0.16,WUHU21623XXSP,2013-04-05 03:01:00,
2013-04-04 20:03:00,52.5,49.6,29.81,SW,225,5.6,12.3,90,0.00,,,0.16,WUHU21623XXSP,2013-04-05 03:03:00,
2013-04-04 20:04:00,52.5,49.6,29.81,SW,225,0.0,12.3,90,0.00,,,0.16,WUHU21623XXSP,2013-04-05 03:04:00,
2013-04-04 20:06:00,52.5,49.6,29.81,SSW,202,0.0,12.3,90,0.00,,,0.16,WUHU21623XXSP,2013-04-05 03:06:00,
2013-04-04 20:08:00,52.5,49.6,29.81,South,180,0.0,9.2,90,0.00,,,0.16,WUHU21623XXSP,2013-04-05 03:08:00,
2013-04-04 20:09:00,52.5,49.6,29.81,SSE,157,1.3,9.2,90,0.00,,,0.16,WUHU21623XXSP,2013-04-05 03:09:00,
2013-04-04 20:11:00,52.5,49.6,29.81,NNW,337,5.4,9.2,90,0.00,,,0.16,WUHU21623XXSP,2013-04-05 03:11:00,
2013-04-04 20:13:00,52.3,49.5,29.81,SSW,202,0.0,9.2,90,0.00,,,0.16,WUHU21623XXSP,2013-04-05 03:13:00,
2013-04-04 20:15:00,52.3,49.5,29.81,SE,135,1.3,5.4,90,0.00,,,0.16,WUHU21623XXSP,2013-04-05 03:15:00,
2013-04-04 20:16:00,52.3,49.5,29.81,South,180,0.0,5.4,90,0.00,,,0.16,WUHU21623XXSP,2013-04-05 03:16:00,
2013-04-04 20:18:00,52.3,49.5,29.81,NNE,22,0.0,7.2,90,0.00,,,0.16,WUHU21623XXSP,2013-04-05 03:18:00,
2013-04-04 20:20:00,52.3,49.5,29.81,SW,225,0.0,8.3,90,0.00,,,0.16,WUHU21623XXSP,2013-04-05 03:20:00,
2013-04-04 20:21:00,52.3,49.5,29.81,SE,135,2.7,8.3,90,0.00,,,0.16,WUHU21623XXSP,2013-04-05 03:21:00,
2013-04-04 20:23:00,52.3,49.5,29.81,WNW,292,0.7,8.3,90,0.00,,,0.16,WUHU21623XXSP,2013-04-05 03:23:00,
2013-04-04 20:25:00,52.3,49.5,29.81,SSW,202,2.5,8.3,90,0.00,,,0.16,WUHU21623XXSP,2013-04-05 03:25:00,
2013-04-04 20:26:00,52.3,49.2,29.81,SSW,202,1.8,8.3,89,0.00,,,0.16,WUHU21623XXSP,2013-04-05 03:26:00,
2013-04-04 20:28:00,52.3,49.5,29.81,SSE,157,0.0,8.3,90,0.00,,,0.16,WUHU21623XXSP,2013-04-05 03:28:00,
2013-04-04 20:30:00,52.3,49.2,29.81,SW,225,0.0,5.4,89,0.00,,,0.16,WUHU21623XXSP,2013-04-05 03:30:00,
2013-04-04 20:31:00,52.3,49.5,29.81,South,180,0.0,5.4,90,0.00,,,0.16,WUHU21623XXSP,2013-04-05 03:31:00,
2013-04-04 20:34:00,52.3,49.2,29.81,SW,225,0.0,5.4,89,0.00,,,0.16,WUHU21623XXSP,2013-04-05 03:34:00,
2013-04-04 20:35:00,52.3,49.2,29.81,SSW,202,3.6,6.3,89,0.00,,,0.16,WUHU21623XXSP,2013-04-05 03:35:00,
2013-04-04 20:36:00,52.3,49.2,29.81,SSW,202,0.0,6.3,89,0.00,,,0.16,WUHU21623XXSP,2013-04-05 03:36:00,
2013-04-04 20:39:00,52.5,49.3,29.81,South,180,1.1,6.3,89,0.00,,,0.16,WUHU21623XXSP,2013-04-05 03:39:00,
2013-04-04 20:41:00,52.5,49.3,29.81,West,270,0.0,6.3,89,0.00,,,0.16,WUHU21623XXSP,2013-04-05 03:41:00,
2013-04-04 20:42:00,52.5,49.3,29.81,ESE,112,1.3,6.3,89,0.00,,,0.16,WUHU21623XXSP,2013-04-05 03:42:00,
2013-04-04 20:44:00,52.5,49.3,29.82,SSE,157,4.9,10.5,89,0.00,,,0.16,WUHU21623XXSP,2013-04-05 03:44:00,
2013-04-04 20:46:00,52.5,49.3,29.82,SSE,157,2.9,10.5,89,0.00,,,0.16,WUHU21623XXSP,2013-04-05 03:46:00,
2013-04-04 20:47:00,52.5,49.3,29.82,SSE,157,0.0,10.5,89,0.02,,,0.18,WUHU21623XXSP,2013-04-05 03:47:00,
2013-04-04 20:49:00,52.5,49.3,29.82,SW,225,0.9,10.5,89,0.02,,,0.18,WUHU21623XXSP,2013-04-05 03:49:00,
2013-04-04 20:51:00,52.5,49.3,29.82,WNW,292,3.1,10.5,89,0.02,,,0.18,WUHU21623XXSP,2013-04-05 03:51:00,
2013-04-04 20:52:00,52.5,49.3,29.82,SSE,157,2.5,10.5,89,0.02,,,0.18,WUHU21623XXSP,2013-04-05 03:52:00,
2013-04-04 20:55:00,52.5,49.3,29.82,ENE,67,0.7,8.7,89,0.02,,,0.18,WUHU21623XXSP,2013-04-05 03:55:00,
2013-04-04 20:56:00,52.5,49.3,29.82,SW,225,0.0,8.1,89,0.02,,,0.18,WUHU21623XXSP,2013-04-05 03:56:00,
2013-04-04 20:57:00,52.5,49.3,29.82,SSE,157,0.0,8.1,89,0.02,,,0.18,WUHU21623XXSP,2013-04-05 03:57:00,
2013-04-04 20:58:00,52.5,49.3,29.82,SE,135,0.0,8.1,89,0.02,,,0.18,WUHU21623XXSP,2013-04-05 03:58:00,
2013-04-04 21:00:00,52.5,49.3,29.82,SSE,157,4.9,8.1,89,0.02,,,0.18,WUHU21623XXSP,2013-04-05 04:00:00,
2013-04-04 21:05:00,52.5,49.3,29.82,SSW,202,1.3,8.9,89,0.02,,,0.18,WUHU21623XXSP,2013-04-05 04:05:00,
2013-04-04 21:10:00,52.5,49.3,29.83,SE,135,5.1,12.8,89,0.02,,,0.18,WUHU21623XXSP,2013-04-05 04:10:00,
2013-04-04 21:11:00,52.5,49.3,29.82,ESE,112,2.5,12.8,89,0.02,,,0.18,WUHU21623XXSP,2013-04-05 04:11:00,
2013-04-04 21:15:00,52.5,49.6,29.83,SW,225,0.0,12.8,90,0.02,,,0.18,WUHU21623XXSP,2013-04-05 04:15:00,
2013-04-04 21:16:00,52.5,49.6,29.83,SE,135,5.1,12.8,90,0.02,,,0.18,WUHU21623XXSP,2013-04-05 04:16:00,
2013-04-04 21:20:00,52.5,49.6,29.83,East,90,0.0,15.7,90,0.02,,,0.18,WUHU21623XXSP,2013-04-05 04:20:00,
2013-04-04 21:21:00,52.5,49.6,29.83,WSW,247,3.1,15.7,90,0.02,,,0.18,WUHU21623XXSP,2013-04-05 04:21:00,
2013-04-04 21:25:00,52.5,49.6,29.83,SSW,202,0.0,15.7,90,0.02,,,0.18,WUHU21623XXSP,2013-04-05 04:25:00,
2013-04-04 21:26:00,52.5,49.6,29.83,SSE,157,6.9,15.7,90,0.02,,,0.18,WUHU21623XXSP,2013-04-05 04:26:00,
2013-04-04 21:30:00,52.5,49.6,29.84,SE,135,4.9,10.5,90,0.02,,,0.18,WUHU21623XXSP,2013-04-05 04:30:00,
2013-04-04 21:31:00,52.5,49.6,29.84,West,270,4.0,10.5,90,0.02,,,0.18,WUHU21623XXSP,2013-04-05 04:31:00,
2013-04-04 21:35:00,52.5,49.6,29.84,SSW,202,1.3,7.2,90,0.02,,,0.18,WUHU21623XXSP,2013-04-05 04:35:00,
2013-04-04 21:36:00,52.5,49.6,29.84,SSW,202,1.3,7.2,90,0.02,,,0.18,WUHU21623XXSP,2013-04-05 04:36:00,
2013-04-04 21:37:00,52.5,49.6,29.84,SE,135,2.5,7.2,90,0.02,,,0.18,WUHU21623XXSP,2013-04-05 04:37:00,
2013-04-04 21:41:00,52.5,49.6,29.84,South,180,3.4,8.7,90,0.02,,,0.18,WUHU21623XXSP,2013-04-05 04:41:00,
2013-04-04 21:42:00,52.5,49.6,29.84,South,180,1.8,8.7,90,0.02,,,0.18,WUHU21623XXSP,2013-04-05 04:42:00,
2013-04-04 21:46:00,52.5,49.6,29.84,WSW,247,4.9,8.7,90,0.00,,,0.18,WUHU21623XXSP,2013-04-05 04:46:00,
2013-04-04 21:47:00,52.5,49.6,29.84,SSE,157,1.3,8.3,90,0.00,,,0.18,WUHU21623XXSP,2013-04-05 04:47:00,
2013-04-04 21:51:00,52.5,49.6,29.84,SSW,202,4.7,8.3,90,0.00,,,0.18,WUHU21623XXSP,2013-04-05 04:51:00,
2013-04-04 21:52:00,52.3,49.5,29.84,SE,135,2.5,5.6,90,0.00,,,0.18,WUHU21623XXSP,2013-04-05 04:52:00,
2013-04-04 21:56:00,52.5,49.6,29.84,SSW,202,2.5,5.4,90,0.02,,,0.18,WUHU21623XXSP,2013-04-05 04:56:00,
2013-04-04 21:57:00,52.3,49.5,29.84,SW,225,3.6,6.5,90,0.02,,,0.20,WUHU21623XXSP,2013-04-05 04:57:00,
2013-04-04 21:58:00,52.3,49.5,29.85,SW,225,2.0,6.5,90,0.02,,,0.20,WUHU21623XXSP,2013-04-05 04:58:00,
2013-04-04 22:01:00,52.3,49.5,29.85,South,180,2.0,6.5,90,0.04,,,0.22,WUHU21623XXSP,2013-04-05 05:01:00,
2013-04-04 22:02:00,52.3,49.5,29.85,South,180,2.9,6.5,90,0.04,,,0.22,WUHU21623XXSP,2013-04-05 05:02:00,
2013-04-04 22:03:00,52.3,49.5,29.84,SSE,157,2.5,6.5,90,0.04,,,0.22,WUHU21623XXSP,2013-04-05 05:03:00,
2013-04-04 22:07:00,52.3,49.5,29.85,East,90,4.5,7.4,90,0.04,,,0.22,WUHU21623XXSP,2013-04-05 05:07:00,
2013-04-04 22:08:00,52.3,49.5,29.85,WSW,247,16.1,16.1,90,0.04,,,0.22,WUHU21623XXSP,2013-04-05 05:08:00,
2013-04-04 22:12:00,52.3,49.5,29.85,WSW,247,1.6,16.1,90,0.04,,,0.22,WUHU21623XXSP,2013-04-05 05:12:00,
2013-04-04 22:13:00,52.3,49.5,29.85,SSE,157,0.0,16.1,90,0.04,,,0.22,WUHU21623XXSP,2013-04-05 05:13:00,
2013-04-04 22:17:00,52.3,49.5,29.85,WSW,247,0.0,16.1,90,0.04,,,0.22,WUHU21623XXSP,2013-04-05 05:17:00,
2013-04-04 22:18:00,52.3,49.5,29.85,South,180,1.8,14.5,90,0.04,,,0.22,WUHU21623XXSP,2013-04-05 05:18:00,
2013-04-04 22:22:00,52.2,49.3,29.85,ENE,67,0.0,14.5,90,0.04,,,0.22,WUHU21623XXSP,2013-04-05 05:22:00,
2013-04-04 22:23:00,52.3,49.5,29.85,SSW,202,0.0,14.5,90,0.04,,,0.22,WUHU21623XXSP,2013-04-05 05:23:00,
2013-04-04 22:24:00,52.3,49.5,29.85,SSW,202,1.3,14.5,90,0.04,,,0.22,WUHU21623XXSP,2013-04-05 05:24:00,
2013-04-04 22:28:00,52.3,49.7,29.85,WSW,247,2.5,7.6,91,0.04,,,0.22,WUHU21623XXSP,2013-04-05 05:28:00,
2013-04-04 22:29:00,52.3,49.7,29.85,SE,135,11.9,11.9,91,0.04,,,0.22,WUHU21623XXSP,2013-04-05 05:29:00,
2013-04-04 22:33:00,52.2,49.6,29.85,WNW,292,2.0,11.9,91,0.04,,,0.22,WUHU21623XXSP,2013-04-05 05:33:00,
2013-04-04 22:34:00,52.3,49.7,29.85,WSW,247,0.0,11.9,91,0.04,,,0.22,WUHU21623XXSP,2013-04-05 05:34:00,
2013-04-04 22:35:00,52.2,49.6,29.85,SSE,157,0.2,11.9,91,0.04,,,0.22,WUHU21623XXSP,2013-04-05 05:35:00,
2013-04-04 22:38:00,52.3,49.7,29.86,SSW,202,1.3,11.9,91,0.04,,,0.22,WUHU21623XXSP,2013-04-05 05:38:00,
2013-04-04 22:39:00,52.3,49.7,29.86,SE,135,5.6,11.9,91,0.04,,,0.22,WUHU21623XXSP,2013-04-05 05:39:00,
2013-04-04 22:40:00,52.3,49.7,29.86,ESE,112,0.0,5.8,91,0.04,,,0.22,WUHU21623XXSP,2013-04-05 05:40:00,
2013-04-04 22:43:00,52.2,49.6,29.86,South,180,0.0,5.8,91,0.04,,,0.22,WUHU21623XXSP,2013-04-05 05:43:00,
2013-04-04 22:44:00,52.3,49.7,29.86,SE,135,0.9,5.8,91,0.04,,,0.22,WUHU21623XXSP,2013-04-05 05:44:00,
2013-04-04 22:45:00,52.3,49.7,29.86,WSW,247,2.2,5.8,91,0.04,,,0.22,WUHU21623XXSP,2013-04-05 05:45:00,
2013-04-04 22:48:00,52.3,49.7,29.86,SW,225,0.0,10.7,91,0.04,,,0.22,WUHU21623XXSP,2013-04-05 05:48:00,
2013-04-04 22:49:00,52.3,49.7,29.86,SW,225,3.4,10.7,91,0.04,,,0.22,WUHU21623XXSP,2013-04-05 05:49:00,
2013-04-04 22:50:00,52.3,49.7,29.86,SE,135,8.7,10.7,91,0.04,,,0.22,WUHU21623XXSP,2013-04-05 05:50:00,
2013-04-04 22:54:00,52.3,49.7,29.86,SSW,202,4.3,10.7,91,0.04,,,0.22,WUHU21623XXSP,2013-04-05 05:54:00,
2013-04-04 22:55:00,52.2,49.6,29.86,ESE,112,2.7,10.7,91,0.04,,,0.22,WUHU21623XXSP,2013-04-05 05:55:00,
2013-04-04 22:56:00,52.2,49.6,29.86,SSE,157,0.0,10.7,91,0.02,,,0.22,WUHU21623XXSP,2013-04-05 05:56:00,
2013-04-04 22:59:00,52.2,49.6,29.86,NE,45,3.1,8.7,91,0.02,,,0.22,WUHU21623XXSP,2013-04-05 05:59:00,
2013-04-04 23:00:00,52.2,49.6,29.86,South,180,8.9,8.9,91,0.00,,,0.22,WUHU21623XXSP,2013-04-05 06:00:00,
2013-04-04 23:01:00,52.2,49.6,29.86,SE,135,2.5,8.9,91,0.02,,,0.22,WUHU21623XXSP,2013-04-05 06:01:00,
2013-04-04 23:04:00,52.3,49.7,29.86,South,180,2.0,8.9,91,0.02,,,0.24,WUHU21623XXSP,2013-04-05 06:04:00,
2013-04-04 23:05:00,52.2,49.6,29.87,SSE,157,0.0,8.9,91,0.02,,,0.24,WUHU21623XXSP,2013-04-05 06:05:00,
2013-04-04 23:06:00,52.2,49.6,29.87,ESE,112,4.7,8.9,91,0.02,,,0.24,WUHU21623XXSP,2013-04-05 06:06:00,
2013-04-04 23:09:00,52.3,49.7,29.87,SW,225,4.0,10.3,91,0.02,,,0.24,WUHU21623XXSP,2013-04-05 06:09:00,
2013-04-04 23:10:00,52.2,49.6,29.87,SW,225,0.0,10.3,91,0.02,,,0.24,WUHU21623XXSP,2013-04-05 06:10:00,
2013-04-04 23:12:00,52.3,49.7,29.86,SSW,202,3.8,10.3,91,0.02,,,0.24,WUHU21623XXSP,2013-04-05 06:12:00,
2013-04-04 23:15:00,52.3,49.7,29.87,NE,45,2.2,10.3,91,0.02,,,0.24,WUHU21623XXSP,2013-04-05 06:15:00,
2013-04-04 23:17:00,52.2,49.6,29.87,SSW,202,0.0,10.3,91,0.02,,,0.24,WUHU21623XXSP,2013-04-05 06:17:00,
2013-04-04 23:20:00,52.2,49.6,29.87,SSW,202,1.6,13.6,91,0.02,,,0.24,WUHU21623XXSP,2013-04-05 06:20:00,
2013-04-04 23:21:00,52.3,49.7,29.87,SW,225,7.8,13.6,91,0.02,,,0.24,WUHU21623XXSP,2013-04-05 06:21:00,
2013-04-04 23:22:00,52.2,49.6,29.87,SSW,202,2.9,13.6,91,0.02,,,0.24,WUHU21623XXSP,2013-04-05 06:22:00,
2013-04-04 23:25:00,52.2,49.6,29.87,South,180,0.0,13.6,91,0.02,,,0.24,WUHU21623XXSP,2013-04-05 06:25:00,
2013-04-04 23:26:00,52.2,49.6,29.87,SSE,157,0.0,13.6,91,0.02,,,0.24,WUHU21623XXSP,2013-04-05 06:26:00,
2013-04-04 23:27:00,52.2,49.6,29.87,SE,135,1.8,7.8,91,0.02,,,0.24,WUHU21623XXSP,2013-04-05 06:27:00,
2013-04-04 23:30:00,52.2,49.6,29.87,East,90,3.6,7.8,91,0.02,,,0.24,WUHU21623XXSP,2013-04-05 06:30:00,
2013-04-04 23:32:00,52.2,49.6,29.87,South,180,1.8,6.9,91,0.02,,,0.24,WUHU21623XXSP,2013-04-05 06:32:00,
2013-04-04 23:35:00,52.2,49.6,29.87,South,180,0.0,6.3,91,0.02,,,0.24,WUHU21623XXSP,2013-04-05 06:35:00,
2013-04-04 23:37:00,52.2,49.6,29.87,SSE,157,2.2,12.1,91,0.02,,,0.24,WUHU21623XXSP,2013-04-05 06:37:00,
2013-04-04 23:40:00,52.2,49.6,29.87,SSW,202,2.0,12.1,91,0.02,,,0.24,WUHU21623XXSP,2013-04-05 06:40:00,
2013-04-04 23:42:00,52.2,49.6,29.87,South,180,4.3,12.1,91,0.02,,,0.24,WUHU21623XXSP,2013-04-05 06:42:00,
2013-04-04 23:43:00,52.2,49.6,29.87,SSW,202,1.8,12.1,91,0.02,,,0.24,WUHU21623XXSP,2013-04-05 06:43:00,
2013-04-04 23:45:00,52.2,49.6,29.87,SSW,202,0.0,12.1,91,0.02,,,0.24,WUHU21623XXSP,2013-04-05 06:45:00,
2013-04-04 23:46:00,52.3,49.7,29.87,SSE,157,4.3,12.1,91,0.02,,,0.24,WUHU21623XXSP,2013-04-05 06:46:00,
2013-04-04 23:47:00,52.2,49.6,29.87,West,270,3.8,10.1,91,0.02,,,0.24,WUHU21623XXSP,2013-04-05 06:47:00,
2013-04-04 23:48:00,52.2,49.6,29.87,SE,135,4.5,9.8,91,0.02,,,0.24,WUHU21623XXSP,2013-04-05 06:48:00,
2013-04-04 23:50:00,52.3,49.7,29.87,SW,225,0.0,9.8,91,0.02,,,0.24,WUHU21623XXSP,2013-04-05 06:50:00,
2013-04-04 23:51:00,52.3,49.7,29.88,North,0,0.0,9.8,91,0.02,,,0.24,WUHU21623XXSP,2013-04-05 06:51:00,
2013-04-04 23:52:00,52.3,49.7,29.88,SE,135,2.9,9.8,91,0.02,,,0.24,WUHU21623XXSP,2013-04-05 06:52:00,
2013-04-04 23:53:00,52.3,49.7,29.87,SSE,157,3.4,7.6,91,0.02,,,0.24,WUHU21623XXSP,2013-04-05 06:53:00,
2013-04-04 23:55:00,52.2,49.6,29.87,SSW,202,2.7,7.6,91,0.02,,,0.24,WUHU21623XXSP,2013-04-05 06:55:00,
2013-04-04 23:56:00,52.3,49.7,29.88,SW,225,4.5,7.6,91,0.02,,,0.24,WUHU21623XXSP,2013-04-05 06:56:00,
2013-04-04 23:57:00,52.3,49.6,29.88,SW,225,0.0,7.6,91,0.02,,,0.24,WUHU21623XXSP,2013-04-05 06:57:00,
2013-04-04 23:58:00,52.2,49.6,29.88,West,270,0.0,7.4,91,0.02,,,0.24,WUHU21623XXSP,2013-04-05 06:58:00,